AA57 / N729AN 7700 Squawk Report (16th of February, 2020)

Aircraft B77W Reg No. N729AN Age 5 years old
Model 777 Jet engines 2 First flight 23-04-14
Registered 09-04-13 Rollout N/A Delivered 19-05-14
Construction No. 33127 Line No. 1200 Series 323(ER)
ADSHEX A9C508 Airline name American Airlines Owner N/A
Airfield based Dallas-Fort Worth~TX~N First tracked N/A
Time Lat Lon Altitude Heading Speed Vertical Rate
2020-02-16 14:26:27 GMT 51.468513 -0.469894 0 0 0 0
2020-02-16 14:26:17 GMT 51.468521 -0.469907 0 0 0 0
2020-02-16 14:25:58 GMT 51.468513 -0.469894 0 0 0 0
2020-02-16 14:25:48 GMT 51.468502 -0.469894 0 0 0 0
2020-02-16 14:25:38 GMT 51.468468 -0.469894 0 0 1 0
2020-02-16 14:25:27 GMT 51.468407 -0.469907 0 357 2 0
2020-02-16 14:25:15 GMT 51.468304 -0.469907 0 357 3 0
2020-02-16 14:25:06 GMT 51.468212 -0.469888 0 357 3 0
2020-02-16 14:24:56 GMT 51.468037 -0.469894 0 351 4 0
2020-02-16 14:24:46 GMT 51.467846 -0.469907 0 334 5 0
2020-02-16 14:24:34 GMT 51.467617 -0.469833 0 300 6 0
2020-02-16 14:24:24 GMT 51.467480 -0.469532 0 278 5 0
2020-02-16 14:24:13 GMT 51.467480 -0.469208 0 289 5 0
2020-02-16 14:24:04 GMT 51.467480 -0.468922 0 320 5 0
2020-02-16 14:23:53 GMT 51.467331 -0.468645 0 354 5 0
2020-02-16 14:23:44 GMT 51.467083 -0.468616 0 0 8 0
2020-02-16 14:23:33 GMT 51.466663 -0.468597 0 0 8 0
2020-02-16 14:23:16 GMT 51.466061 -0.468559 0 340 8 0
2020-02-16 14:23:11 GMT 51.465923 -0.468515 0 317 8 0
2020-02-16 14:23:01 GMT 51.465641 -0.468063 0 300 14 0
2020-02-16 14:22:37 GMT 51.464859 -0.463968 0 270 40 0
2020-02-16 14:22:31 GMT 51.464870 -0.462322 0 270 48 0
2020-02-16 14:22:15 GMT 51.464893 -0.453644 0 270 108 0
2020-02-16 14:22:08 GMT 51.464943 -0.441132 625 270 152 -192
2020-02-16 14:22:02 GMT 51.464943 -0.441132 525 270 151 -704
2020-02-16 14:21:56 GMT 51.464989 -0.433197 625 270 150 -832
2020-02-16 14:21:51 GMT 51.464989 -0.428619 725 270 146 -768
2020-02-16 14:21:47 GMT 51.465042 -0.421489 825 270 146 -704
2020-02-16 14:21:44 GMT 51.465042 -0.421489 800 270 146 -640
2020-02-16 14:21:40 GMT 51.465034 -0.417404 825 270 146 -768
2020-02-16 14:21:37 GMT 51.465034 -0.413818 875 270 146 -832
2020-02-16 14:21:33 GMT 51.465080 -0.409393 925 270 145 -768
2020-02-16 14:21:30 GMT 51.465088 -0.404861 975 270 145 -768
2020-02-16 14:21:26 GMT 51.465088 -0.401149 1,025 269 144 -832
2020-02-16 14:21:23 GMT 51.465134 -0.395137 1,050 269 144 -896
2020-02-16 14:21:20 GMT 51.465134 -0.395137 1,125 270 143 -960
2020-02-16 14:21:16 GMT 51.465176 -0.391312 1,150 270 142 -960
2020-02-16 14:21:13 GMT 51.465179 -0.384744 1,225 270 141 -640
2020-02-16 14:21:10 GMT 51.465179 -0.384744 1,250 270 141 -896
2020-02-16 14:21:07 GMT 51.465221 -0.382080 1,300 271 142 -896
2020-02-16 14:21:03 GMT 51.465176 -0.377121 1,325 271 141 -768
2020-02-16 14:20:58 GMT 51.465176 -0.372849 1,375 271 140 -704
2020-02-16 14:20:55 GMT 51.465176 -0.367889 1,450 270 138 -704
2020-02-16 14:20:52 GMT 51.465179 -0.365073 1,475 270 138 -832
2020-02-16 14:20:49 GMT 51.465179 -0.363365 1,500 270 137 -768
2020-02-16 14:20:46 GMT 51.465176 -0.359116 1,525 270 136 -768
2020-02-16 14:20:43 GMT 51.465179 -0.357575 1,575 270 135 -704
2020-02-16 14:20:40 GMT 51.465179 -0.353493 1,600 270 135 -768
2020-02-16 14:20:36 GMT 51.465221 -0.350113 1,650 270 135 -704
2020-02-16 14:20:32 GMT 51.465225 -0.346292 1,700 270 135 -768
2020-02-16 14:20:28 GMT 51.465225 -0.341987 1,775 270 134 -640
2020-02-16 14:20:25 GMT 51.465221 -0.338516 1,800 270 129 -768
2020-02-16 14:20:22 GMT 51.465221 -0.336151 1,825 270 129 -832
2020-02-16 14:20:19 GMT 51.465225 -0.333227 1,850 270 129 -768
2020-02-16 14:20:16 GMT 51.465225 -0.330258 1,925 270 129 -832
2020-02-16 14:20:13 GMT 51.465271 -0.327289 1,950 270 128 -640
2020-02-16 14:20:09 GMT 51.465267 -0.323486 1,975 270 129 -704
2020-02-16 14:20:06 GMT 51.465267 -0.321121 2,200 270 128 -576
2020-02-16 14:20:03 GMT 51.465267 -0.317841 2,075 270 129 -768
2020-02-16 14:19:59 GMT 51.465267 -0.314102 2,075 270 129 -768
2020-02-16 14:19:56 GMT 51.465267 -0.310898 2,175 270 127 -640
2020-02-16 14:19:53 GMT 51.465267 -0.305405 2,175 270 128 -512
2020-02-16 14:19:50 GMT 51.465313 -0.302811 2,200 270 127 -640
2020-02-16 14:19:47 GMT 51.465313 -0.302811 2,250 270 127 -768
2020-02-16 14:19:44 GMT 51.465313 -0.299683 2,400 270 134 -576
2020-02-16 14:19:41 GMT 51.465317 -0.297225 2,450 270 136 -576
2020-02-16 14:19:37 GMT 51.465317 -0.289653 2,425 270 133 -832
2020-02-16 14:19:34 GMT 51.465317 -0.289653 2,400 270 133 -640
2020-02-16 14:19:31 GMT 51.465313 -0.283051 2,425 270 138 -896
2020-02-16 14:19:28 GMT 51.465313 -0.283051 2,475 270 136 -576
2020-02-16 14:19:25 GMT 51.465363 -0.278741 2,500 270 137 -512
2020-02-16 14:19:18 GMT 51.465363 -0.274139 2,550 270 138 -768
2020-02-16 14:19:15 GMT 51.465363 -0.270798 2,600 270 138 -896
2020-02-16 14:19:12 GMT 51.465363 -0.267606 2,650 270 139 -896
2020-02-16 14:19:08 GMT 51.465363 -0.264053 2,700 270 140 -832
2020-02-16 14:19:05 GMT 51.465363 -0.261371 2,725 270 140 -832
2020-02-16 14:19:02 GMT 51.465363 -0.257139 2,800 270 140 -768
2020-02-16 14:18:59 GMT 51.465363 -0.253502 2,825 270 150 -640
2020-02-16 14:18:56 GMT 51.465363 -0.251846 2,850 270 140 -768
2020-02-16 14:18:53 GMT 51.465408 -0.245209 2,900 270 142 -704
2020-02-16 14:18:47 GMT 51.465408 -0.238507 2,975 270 149 -704
2020-02-16 14:18:41 GMT 51.465408 -0.235464 3,025 270 153 -896
2020-02-16 14:18:38 GMT 51.465408 -0.229874 3,025 270 154 -960
2020-02-16 14:18:35 GMT 51.465408 -0.228729 3,075 270 156 -1088
2020-02-16 14:18:32 GMT 51.465408 -0.222547 3,200 270 160 -1024
2020-02-16 14:18:26 GMT 51.465408 -0.218168 3,275 270 161 -960
2020-02-16 14:18:23 GMT 51.465408 -0.213470 3,300 270 161 -896
2020-02-16 14:18:20 GMT 51.465454 -0.210448 3,375 270 162 -832
2020-02-16 14:18:17 GMT 51.465454 -0.206375 3,425 270 162 -896
2020-02-16 14:18:14 GMT 51.465454 -0.202802 3,425 270 162 -960
2020-02-16 14:18:11 GMT 51.465454 -0.196915 3,525 270 163 -960
2020-02-16 14:18:05 GMT 51.465454 -0.189663 3,625 270 162 -832
2020-02-16 14:18:02 GMT 51.465454 -0.189663 3,675 270 161 -768
2020-02-16 14:17:59 GMT 51.465454 -0.185471 3,700 270 161 -832
2020-02-16 14:17:56 GMT 51.465454 -0.181794 3,725 270 161 -832
2020-02-16 14:17:53 GMT 51.465454 -0.178452 3,850 270 158 -832
2020-02-16 14:17:50 GMT 51.465454 -0.174445 3,825 270 158 -832
2020-02-16 14:17:47 GMT 51.465500 -0.170898 3,850 270 157 -832
2020-02-16 14:17:44 GMT 51.465500 -0.167542 3,900 270 157 -832
2020-02-16 14:17:41 GMT 51.465454 -0.163040 3,925 270 158 -832
2020-02-16 14:17:37 GMT 51.465454 -0.159970 4,075 270 159 -960
2020-02-16 14:17:34 GMT 51.465500 -0.155487 4,050 270 159 -960
2020-02-16 14:17:31 GMT 51.465500 -0.152512 4,150 270 159 -960
2020-02-16 14:17:28 GMT 51.465500 -0.148538 4,150 270 159 -896
2020-02-16 14:17:25 GMT 51.465500 -0.145123 4,475 271 159 -960
2020-02-16 14:17:21 GMT 51.465500 -0.139771 4,275 271 159 -1024
2020-02-16 14:17:17 GMT 51.465500 -0.136108 4,500 270 158 -640
2020-02-16 14:17:14 GMT 51.465454 -0.133024 4,500 270 158 -192
2020-02-16 14:17:11 GMT 51.465454 -0.128326 4,400 270 159 -1088
2020-02-16 14:17:07 GMT 51.465454 -0.123596 4,500 270 158 -640
2020-02-16 14:17:04 GMT 51.465454 -0.121518 4,500 270 158 -320
2020-02-16 14:17:01 GMT 51.465454 -0.117361 4,500 270 159 0
2020-02-16 14:16:58 GMT 51.465500 -0.113946 4,500 270 162 0
2020-02-16 14:16:55 GMT 51.465500 -0.110606 4,500 271 172 -128
2020-02-16 14:16:52 GMT 51.465500 -0.107117 4,500 270 167 -64
2020-02-16 14:16:46 GMT 51.465500 -0.098724 4,500 271 174 -128
2020-02-16 14:16:43 GMT 51.465454 -0.094646 4,500 271 176 -64
2020-02-16 14:16:40 GMT 51.465454 -0.091553 4,500 271 177 64
2020-02-16 14:16:37 GMT 51.465408 -0.087433 4,525 271 177 64
2020-02-16 14:16:34 GMT 51.465363 -0.084031 4,525 271 176 0
2020-02-16 14:16:31 GMT 51.465363 -0.080948 4,525 271 175 64
2020-02-16 14:16:28 GMT 51.465313 -0.076370 4,500 273 176 0
2020-02-16 14:16:25 GMT 51.465271 -0.072228 4,500 271 175 0
2020-02-16 14:16:22 GMT 51.465225 -0.068516 4,500 271 175 128
2020-02-16 14:16:19 GMT 51.465134 -0.060573 4,500 271 175 128
2020-02-16 14:16:16 GMT 51.465134 -0.060573 4,500 271 175 128
2020-02-16 14:16:13 GMT 51.465080 -0.055542 4,500 271 175 64
2020-02-16 14:16:10 GMT 51.465080 -0.052719 4,500 272 175 64
2020-02-16 14:16:07 GMT 51.464989 -0.048981 4,500 274 176 -64
2020-02-16 14:16:04 GMT 51.464905 -0.044836 4,500 274 176 -64
2020-02-16 14:16:01 GMT 51.464722 -0.040011 4,500 277 178 -64
2020-02-16 14:15:58 GMT 51.464432 -0.036087 4,500 280 178 -64
2020-02-16 14:15:55 GMT 51.464104 -0.032578 4,525 282 178 -64
2020-02-16 14:15:52 GMT 51.463577 -0.028654 4,525 284 178 -64
2020-02-16 14:15:49 GMT 51.463127 -0.026016 4,550 289 177 -64
2020-02-16 14:15:46 GMT 51.462250 -0.021453 4,525 289 177 -64
2020-02-16 14:15:43 GMT 51.461243 -0.016479 4,500 84 295 -1024
2020-02-16 14:15:40 GMT 51.460800 -0.014038 4,525 290 182 192
2020-02-16 14:15:37 GMT 51.460098 -0.010764 4,500 306 198 0
2020-02-16 14:15:34 GMT 51.459354 -0.007248 4,500 300 190 64
2020-02-16 14:15:31 GMT 51.456299 0.001782 4,500 306 198 0
2020-02-16 14:15:25 GMT 51.455257 0.003967 4,500 307 201 0
2020-02-16 14:15:22 GMT 51.453415 0.008091 4,500 307 204 -64
2020-02-16 14:15:19 GMT 51.451813 0.011580 4,500 307 209 -64
2020-02-16 14:15:13 GMT 51.448555 0.018616 4,500 308 211 -64
2020-02-16 14:15:10 GMT 51.446136 0.023651 4,500 313 218 0
2020-02-16 14:15:07 GMT 51.444275 0.027313 4,525 315 218 64
2020-02-16 14:15:04 GMT 51.442596 0.030365 4,525 314 217 64
2020-02-16 14:15:01 GMT 51.440689 0.033701 4,525 322 222 -64
2020-02-16 14:14:58 GMT 51.436340 0.039269 4,525 331 229 -256
2020-02-16 14:14:55 GMT 51.435974 0.039640 4,525 340 234 -320
2020-02-16 14:14:52 GMT 51.433006 0.042343 4,525 335 232 -256
2020-02-16 14:14:49 GMT 51.429382 0.044613 4,600 350 238 -704
2020-02-16 14:14:46 GMT 51.425743 0.046234 4,600 352 240 -768
2020-02-16 14:14:43 GMT 51.424210 0.046539 4,625 356 243 -960
2020-02-16 14:14:40 GMT 51.419228 0.046997 4,700 4 249 -1344
2020-02-16 14:14:37 GMT 51.417252 0.046840 4,975 22 263 -1408
2020-02-16 14:14:34 GMT 51.412354 0.045653 4,975 22 263 -1408
2020-02-16 14:14:31 GMT 51.408875 0.044094 4,875 19 261 -1408
2020-02-16 14:14:28 GMT 51.406448 0.042683 4,975 26 266 -1408
2020-02-16 14:14:25 GMT 51.399811 0.037264 5,200 44 277 -1344
2020-02-16 14:14:19 GMT 51.393082 0.028654 5,225 44 277 -1344
2020-02-16 14:14:16 GMT 51.393082 0.028654 5,300 51 280 -1280
2020-02-16 14:14:13 GMT 51.390411 0.024109 5,325 68 288 -1024
2020-02-16 14:14:10 GMT 51.388363 0.019989 5,400 57 284 -1152
2020-02-16 14:14:07 GMT 51.386627 0.015811 5,400 61 285 -1024
2020-02-16 14:14:04 GMT 51.384499 0.009537 5,425 64 287 -1088
2020-02-16 14:14:01 GMT 51.382553 0.002450 5,550 76 292 -1152
2020-02-16 14:13:58 GMT 51.381638 -0.002227 5,550 74 291 -1152
2020-02-16 14:13:55 GMT 51.380589 -0.008774 5,650 79 293 -1216
2020-02-16 14:13:52 GMT 51.379761 -0.016628 5,675 82 294 -1152
2020-02-16 14:13:49 GMT 51.379166 -0.024200 5,750 83 294 -1088
2020-02-16 14:13:46 GMT 51.378754 -0.030435 5,800 84 299 -1024
2020-02-16 14:13:42 GMT 51.378204 -0.038972 5,875 84 296 -1024
2020-02-16 14:13:39 GMT 51.377930 -0.043500 5,925 84 297 -1024
2020-02-16 14:13:36 GMT 51.377052 -0.056915 5,975 84 298 -1024
2020-02-16 14:13:33 GMT 51.377052 -0.056915 6,000 84 299 -1024
2020-02-16 14:13:30 GMT 51.376144 -0.071634 6,100 84 300 -1088
2020-02-16 14:13:24 GMT 51.375935 -0.074997 6,150 84 302 -960
2020-02-16 14:13:21 GMT 51.375275 -0.084921 6,250 84 303 -896
2020-02-16 14:13:18 GMT 51.374817 -0.092468 6,300 84 304 -832
2020-02-16 14:13:15 GMT 51.374493 -0.097198 6,350 84 305 -832
2020-02-16 14:13:12 GMT 51.374130 -0.103034 6,375 84 306 -896
2020-02-16 14:13:09 GMT 51.373699 -0.110168 6,700 84 316 -1280
2020-02-16 14:13:06 GMT 51.373123 -0.119217 6,475 84 308 -896
2020-02-16 14:13:03 GMT 51.372768 -0.124664 6,525 84 308 -896
2020-02-16 14:12:59 GMT 51.372208 -0.134211 6,550 84 310 -832
2020-02-16 14:12:56 GMT 51.371838 -0.140152 6,575 84 311 -832
2020-02-16 14:12:53 GMT 51.371464 -0.146332 6,675 84 313 -832
2020-02-16 14:12:50 GMT 51.370926 -0.154625 6,675 84 314 -896
2020-02-16 14:12:47 GMT 51.370605 -0.160341 6,725 84 315 -1152
2020-02-16 14:12:44 GMT 51.370113 -0.168457 6,800 84 316 -1152
2020-02-16 14:12:41 GMT 51.369644 -0.175930 6,850 84 316 -1216
2020-02-16 14:12:37 GMT 51.368774 -0.189811 6,975 84 316 -1344
2020-02-16 14:12:34 GMT 51.368347 -0.196609 7,000 84 316 -1408
2020-02-16 14:12:31 GMT 51.367722 -0.205919 7,100 84 316 -1472
2020-02-16 14:12:28 GMT 51.367722 -0.205919 7,150 84 316 -1472
2020-02-16 14:12:25 GMT 51.367355 -0.211710 7,275 83 316 -1408
2020-02-16 14:12:21 GMT 51.366577 -0.223083 7,300 83 316 -1408
2020-02-16 14:12:18 GMT 51.366211 -0.228931 7,500 83 316 -1280
2020-02-16 14:12:15 GMT 51.365273 -0.242386 7,450 83 316 -1280
2020-02-16 14:12:12 GMT 51.364902 -0.248032 7,550 83 317 -1216
2020-02-16 14:12:06 GMT 51.364197 -0.258030 7,625 83 319 -1088
2020-02-16 14:12:03 GMT 51.363735 -0.265045 7,675 83 320 -1024
2020-02-16 14:11:57 GMT 51.362732 -0.278889 7,750 83 321 -1024
2020-02-16 14:11:54 GMT 51.362389 -0.283356 7,850 83 323 -960
2020-02-16 14:11:51 GMT 51.361862 -0.290247 7,875 83 323 -960
2020-02-16 14:11:48 GMT 51.361317 -0.297318 7,925 82 324 -896
2020-02-16 14:11:45 GMT 51.360764 -0.304425 7,950 82 325 -832
2020-02-16 14:11:42 GMT 51.359592 -0.318985 8,000 82 329 -192
2020-02-16 14:11:36 GMT 51.358433 -0.333557 8,000 82 334 0
2020-02-16 14:11:33 GMT 51.357918 -0.339661 8,000 82 337 64
2020-02-16 14:11:30 GMT 51.357918 -0.339661 7,975 82 339 64
2020-02-16 14:11:27 GMT 51.356476 -0.358047 7,975 82 346 -64
2020-02-16 14:11:24 GMT 51.356476 -0.358047 8,000 82 349 -64
2020-02-16 14:11:21 GMT 51.356049 -0.363365 8,000 82 347 -64
2020-02-16 14:11:18 GMT 51.355450 -0.370712 8,000 81 353 0
2020-02-16 14:11:15 GMT 51.354858 -0.378360 8,000 81 353 0
2020-02-16 14:11:12 GMT 51.354053 -0.388184 8,000 81 353 64
2020-02-16 14:11:09 GMT 51.353497 -0.394592 8,000 76 354 0
2020-02-16 14:11:06 GMT 51.352524 -0.404935 8,000 80 353 64
2020-02-16 14:11:03 GMT 51.352005 -0.409851 8,000 76 354 64
2020-02-16 14:10:59 GMT 51.350609 -0.420609 8,000 72 354 0
2020-02-16 14:10:56 GMT 51.349411 -0.427353 8,000 70 354 0
2020-02-16 14:10:53 GMT 51.347260 -0.437546 8,000 67 353 -64
2020-02-16 14:10:49 GMT 51.344791 -0.446930 8,000 66 354 0
2020-02-16 14:10:46 GMT 51.341263 -0.459644 8,000 65 355 0
2020-02-16 14:10:43 GMT 51.341263 -0.459644 8,000 65 355 0
2020-02-16 14:10:40 GMT 51.338928 -0.468032 8,000 65 355 0
2020-02-16 14:10:37 GMT 51.336784 -0.475616 8,000 65 355 0
2020-02-16 14:10:34 GMT 51.335342 -0.480652 8,000 65 354 64
2020-02-16 14:10:31 GMT 51.333069 -0.488743 8,000 65 353 0
2020-02-16 14:10:27 GMT 51.328079 -0.506363 8,000 65 352 0
2020-02-16 14:10:24 GMT 51.326157 -0.513240 8,000 65 352 0
2020-02-16 14:10:18 GMT 51.323936 -0.521011 8,000 65 351 0
2020-02-16 14:10:15 GMT 51.320709 -0.532392 8,000 65 351 -64
2020-02-16 14:10:12 GMT 51.320709 -0.532392 8,000 65 351 0
2020-02-16 14:10:09 GMT 51.318211 -0.541077 8,000 65 351 64
2020-02-16 14:10:05 GMT 51.315811 -0.549613 8,000 65 350 0
2020-02-16 14:10:02 GMT 51.313843 -0.556443 8,000 65 350 0
2020-02-16 14:09:59 GMT 51.311783 -0.563717 8,000 65 349 0
2020-02-16 14:09:56 GMT 51.309223 -0.572662 8,000 65 349 0
2020-02-16 14:09:53 GMT 51.307270 -0.579453 8,000 65 349 0
2020-02-16 14:09:50 GMT 51.305363 -0.586243 8,000 65 349 0
2020-02-16 14:09:47 GMT 51.303314 -0.593262 8,000 65 349 0
2020-02-16 14:09:44 GMT 51.301682 -0.598907 8,000 65 351 0
2020-02-16 14:09:41 GMT 51.299587 -0.606155 8,000 65 351 0
2020-02-16 14:09:38 GMT 51.297867 -0.612030 8,000 65 351 -64
2020-02-16 14:09:35 GMT 51.296051 -0.618439 8,000 65 351 -64
2020-02-16 14:09:32 GMT 51.293335 -0.627854 8,000 65 352 0
2020-02-16 14:09:29 GMT 51.290791 -0.636826 8,000 65 351 0
2020-02-16 14:09:26 GMT 51.288025 -0.646783 8,000 65 351 64
2020-02-16 14:09:20 GMT 51.285507 -0.655765 8,000 65 351 0
2020-02-16 14:09:17 GMT 51.281433 -0.670463 8,000 65 351 0
2020-02-16 14:09:14 GMT 51.281433 -0.670463 8,000 65 351 64
2020-02-16 14:09:11 GMT 51.279385 -0.677795 8,000 65 351 64
2020-02-16 14:09:08 GMT 51.275024 -0.693401 8,000 66 352 64
2020-02-16 14:09:04 GMT 51.275024 -0.693401 8,000 66 352 128
2020-02-16 14:09:01 GMT 51.272964 -0.700750 8,000 66 353 0
2020-02-16 14:08:58 GMT 51.270126 -0.710919 8,000 66 353 0
2020-02-16 14:08:55 GMT 51.269028 -0.715002 8,000 66 353 -64
2020-02-16 14:08:52 GMT 51.267048 -0.722122 8,000 66 352 -64
2020-02-16 14:08:49 GMT 51.264679 -0.730739 8,225 66 349 -128
2020-02-16 14:08:46 GMT 51.261322 -0.742722 8,700 65 347 -448
2020-02-16 14:08:43 GMT 51.259136 -0.750504 8,025 66 346 -384
2020-02-16 14:08:40 GMT 51.259136 -0.750504 8,025 65 347 -448
2020-02-16 14:08:37 GMT 51.256855 -0.758667 8,150 65 348 -1088
2020-02-16 14:08:33 GMT 51.254154 -0.768204 8,100 65 347 -1024
2020-02-16 14:08:30 GMT 51.252895 -0.772629 8,125 65 347 -1152
2020-02-16 14:08:27 GMT 51.248657 -0.787304 8,250 65 348 -1024
2020-02-16 14:08:24 GMT 51.246964 -0.793094 8,400 64 350 -960
2020-02-16 14:08:21 GMT 51.244190 -0.802383 8,375 64 350 -960
2020-02-16 14:08:18 GMT 51.244190 -0.802383 8,375 64 350 -960
2020-02-16 14:08:15 GMT 51.242249 -0.808906 8,425 64 351 -1024
2020-02-16 14:08:12 GMT 51.240738 -0.813805 8,575 63 351 -1024
2020-02-16 14:08:09 GMT 51.238586 -0.820783 8,525 63 352 -960
2020-02-16 14:08:06 GMT 51.235485 -0.830765 8,550 63 352 -960
2020-02-16 14:08:03 GMT 51.233253 -0.838013 8,625 63 353 -1216
2020-02-16 14:08:00 GMT 51.229481 -0.849838 8,775 63 354 -1472
2020-02-16 14:07:54 GMT 51.227386 -0.856628 8,825 59 410 -2432
2020-02-16 14:07:51 GMT 51.224361 -0.866165 8,950 61 382 -1600
2020-02-16 14:07:48 GMT 51.222500 -0.872040 9,000 62 362 -1024
2020-02-16 14:07:45 GMT 51.220551 -0.878238 9,000 62 367 -896
2020-02-16 14:07:42 GMT 51.217804 -0.886626 9,050 62 369 -896
2020-02-16 14:07:39 GMT 51.215973 -0.892120 9,075 61 374 -1024
2020-02-16 14:07:36 GMT 51.213558 -0.899353 9,250 61 382 -1536
2020-02-16 14:07:33 GMT 51.210766 -0.907440 9,250 61 382 -1600
2020-02-16 14:07:30 GMT 51.207787 -0.916061 9,325 60 386 -1856
2020-02-16 14:07:27 GMT 51.204250 -0.926285 9,425 60 389 -1856
2020-02-16 14:07:24 GMT 51.203384 -0.928716 9,500 60 391 -1856
2020-02-16 14:07:21 GMT 51.199905 -0.938515 9,625 60 397 -1920
2020-02-16 14:07:18 GMT 51.198105 -0.943604 10,025 59 406 -2048
2020-02-16 14:07:15 GMT 51.195171 -0.951691 9,775 59 401 -1856
2020-02-16 14:07:12 GMT 51.192398 -0.959374 9,875 59 405 -2048
2020-02-16 14:07:09 GMT 51.189587 -0.967102 9,925 59 405 -2048
2020-02-16 14:07:06 GMT 51.186188 -0.976334 10,200 59 409 -2240
2020-02-16 14:07:03 GMT 51.182602 -0.985947 10,250 59 413 -2560
2020-02-16 14:07:00 GMT 51.179810 -0.993576 10,375 59 416 -2688
2020-02-16 14:06:57 GMT 51.177063 -1.000900 10,550 59 417 -2688
2020-02-16 14:06:54 GMT 51.172359 -1.013565 10,725 59 420 -2688
2020-02-16 14:06:51 GMT 51.172359 -1.013565 10,800 59 421 -2688
2020-02-16 14:06:48 GMT 51.169476 -1.021271 10,950 59 422 -2688
2020-02-16 14:06:45 GMT 51.164520 -1.034571 11,025 59 423 -2688
2020-02-16 14:06:42 GMT 51.162643 -1.039693 11,225 59 425 -2624
2020-02-16 14:06:39 GMT 51.159714 -1.047561 11,225 59 429 -2624
2020-02-16 14:06:36 GMT 51.156830 -1.055430 11,450 60 430 -2624
2020-02-16 14:06:33 GMT 51.154064 -1.063080 11,525 60 433 -2688
2020-02-16 14:06:30 GMT 51.150574 -1.072769 11,700 60 434 -2688
2020-02-16 14:06:27 GMT 51.147877 -1.080246 11,850 60 437 -2688
2020-02-16 14:06:23 GMT 51.143780 -1.091690 12,050 60 440 -2560
2020-02-16 14:06:20 GMT 51.141777 -1.097260 13,075 61 463 -2688
2020-02-16 14:06:17 GMT 51.137913 -1.108322 12,400 61 451 -2944
2020-02-16 14:06:14 GMT 51.134792 -1.117096 12,350 60 445 -2816
2020-02-16 14:06:11 GMT 51.129227 -1.132854 12,700 60 448 -2944
2020-02-16 14:06:05 GMT 51.125290 -1.144137 12,875 61 454 -2880
2020-02-16 14:06:02 GMT 51.122272 -1.152878 13,000 61 454 -2880
2020-02-16 14:05:56 GMT 51.117432 -1.166916 13,350 64 632 -2368
2020-02-16 14:05:53 GMT 51.112865 -1.180191 13,500 61 460 -2944
2020-02-16 14:05:50 GMT 51.109886 -1.188736 13,625 61 463 -2688
2020-02-16 14:05:47 GMT 51.107620 -1.195283 13,900 61 468 -2048
2020-02-16 14:05:44 GMT 51.104095 -1.205453 13,825 61 468 -2048
2020-02-16 14:05:41 GMT 51.101486 -1.212950 13,900 60 471 -1856
2020-02-16 14:05:38 GMT 51.098297 -1.222000 13,950 60 474 -1664
2020-02-16 14:05:35 GMT 51.094990 -1.231461 14,125 61 486 -1856
2020-02-16 14:05:32 GMT 51.091965 -1.240119 14,325 61 492 -2624
2020-02-16 14:05:29 GMT 51.087936 -1.251625 14,200 61 488 -2112
2020-02-16 14:05:26 GMT 51.085308 -1.259155 14,725 61 496 -3648
2020-02-16 14:05:23 GMT 51.081161 -1.271222 14,550 61 496 -3648
2020-02-16 14:05:20 GMT 51.074135 -1.291656 14,900 61 498 -3968
2020-02-16 14:05:17 GMT 51.074135 -1.291656 15,225 61 498 -4032
2020-02-16 14:05:14 GMT 51.068481 -1.308412 15,450 61 499 -4352
2020-02-16 14:05:11 GMT 51.068481 -1.308412 15,375 62 502 -4224
2020-02-16 14:05:08 GMT 51.063812 -1.322368 16,425 62 511 -3392
2020-02-16 14:05:05 GMT 51.062164 -1.327193 15,700 62 503 -4096
2020-02-16 14:05:02 GMT 51.058353 -1.338577 15,975 62 504 -4032
2020-02-16 14:04:59 GMT 51.055756 -1.346419 16,100 62 504 -4032
2020-02-16 14:04:56 GMT 51.052025 -1.357574 16,225 62 505 -3904
2020-02-16 14:04:53 GMT 51.049744 -1.364517 16,750 63 520 -2240
2020-02-16 14:04:50 GMT 51.046280 -1.375073 16,600 62 511 -3392
2020-02-16 14:04:47 GMT 51.039688 -1.395561 16,900 63 518 -2432
2020-02-16 14:04:44 GMT 51.036476 -1.405716 17,025 65 525 -2624
2020-02-16 14:04:41 GMT 51.033508 -1.415381 17,225 65 525 -2496
2020-02-16 14:04:38 GMT 51.028980 -1.430588 17,450 64 523 -2240
2020-02-16 14:04:35 GMT 51.028980 -1.430588 17,450 64 636 -4224
2020-02-16 14:04:32 GMT 51.026367 -1.439729 17,450 65 526 -2752
2020-02-16 14:04:29 GMT 51.024216 -1.447078 17,650 65 527 -3008
2020-02-16 14:04:26 GMT 51.020920 -1.458658 18,150 65 528 -3712
2020-02-16 14:04:23 GMT 51.017578 -1.470238 17,900 65 527 -3584
2020-02-16 14:04:20 GMT 51.015060 -1.478997 17,975 65 533 -2816
2020-02-16 14:04:17 GMT 51.009010 -1.500168 18,800 65 528 -3648
2020-02-16 14:04:14 GMT 51.004898 -1.514554 19,000 65 529 -3328
2020-02-16 14:04:11 GMT 51.004898 -1.514554 18,700 65 529 -3136
2020-02-16 14:04:08 GMT 51.002167 -1.524124 18,800 65 529 -3200
2020-02-16 14:04:02 GMT 50.996067 -1.545334 19,100 65 531 -3008
2020-02-16 14:03:58 GMT 50.992622 -1.557312 19,275 65 533 -2880
2020-02-16 14:03:55 GMT 50.989132 -1.569443 19,375 65 533 -2816
2020-02-16 14:03:52 GMT 50.985397 -1.582625 19,575 65 535 -2688
2020-02-16 14:03:49 GMT 50.983826 -1.587982 19,675 65 537 -2624
2020-02-16 14:03:46 GMT 50.980659 -1.599045 19,700 65 537 -2624
2020-02-16 14:03:43 GMT 50.976974 -1.612021 20,025 65 539 -2688
2020-02-16 14:03:39 GMT 50.973396 -1.624603 20,175 65 539 -2688
2020-02-16 14:03:36 GMT 50.969696 -1.637557 20,325 65 542 -2304
2020-02-16 14:03:33 GMT 50.967361 -1.645871 20,300 65 542 -2176
2020-02-16 14:03:30 GMT 50.961060 -1.667938 20,725 65 544 -1920
2020-02-16 14:03:27 GMT 50.958252 -1.677716 20,600 65 544 -1920
2020-02-16 14:03:24 GMT 50.953995 -1.692563 20,700 65 544 -1856
2020-02-16 14:03:21 GMT 50.953995 -1.692563 20,725 65 544 -1856
2020-02-16 14:03:18 GMT 50.951099 -1.702728 20,825 65 545 -1600
2020-02-16 14:03:15 GMT 50.948593 -1.711418 20,875 65 545 -1344
2020-02-16 14:03:12 GMT 50.945560 -1.722031 20,950 65 546 -768
2020-02-16 14:03:09 GMT 50.941315 -1.736953 21,000 65 547 -384
2020-02-16 14:03:06 GMT 50.936188 -1.754843 21,025 65 546 -64
2020-02-16 14:03:00 GMT 50.933270 -1.765060 21,025 65 547 0
2020-02-16 14:02:57 GMT 50.926239 -1.789780 21,025 65 544 -64
2020-02-16 14:02:54 GMT 50.926239 -1.789780 21,025 65 544 -64
2020-02-16 14:02:51 GMT 50.923260 -1.800308 21,025 65 542 -64
2020-02-16 14:02:48 GMT 50.920048 -1.811523 21,050 65 544 -384
2020-02-16 14:02:45 GMT 50.917465 -1.820538 21,050 65 542 -128
2020-02-16 14:02:42 GMT 50.914902 -1.829595 21,050 65 542 -256
2020-02-16 14:02:39 GMT 50.908081 -1.853349 21,075 65 542 -256
2020-02-16 14:02:36 GMT 50.908081 -1.853349 23,000 65 554 -1728
2020-02-16 14:02:33 GMT 50.905289 -1.863148 21,100 65 544 -384
2020-02-16 14:02:30 GMT 50.902084 -1.874357 21,100 65 546 -512
2020-02-16 14:02:27 GMT 50.898880 -1.885566 21,150 65 551 0
2020-02-16 14:02:24 GMT 50.896168 -1.894989 21,150 65 555 -2240
2020-02-16 14:02:21 GMT 50.891697 -1.910706 21,325 65 552 -1216
2020-02-16 14:02:18 GMT 50.889679 -1.917634 21,275 65 552 -1216
2020-02-16 14:02:15 GMT 50.885971 -1.930466 21,325 65 553 -1664
2020-02-16 14:02:12 GMT 50.883133 -1.940349 21,425 65 553 -1664
2020-02-16 14:02:09 GMT 50.880066 -1.951038 21,475 65 554 -1792
2020-02-16 14:02:06 GMT 50.872879 -1.976129 21,650 65 555 -3328
2020-02-16 14:02:03 GMT 50.872879 -1.976129 22,350 65 555 -3328
2020-02-16 14:02:00 GMT 50.869354 -1.988303 22,575 65 556 -3456
2020-02-16 14:01:57 GMT 50.867111 -1.996097 22,500 65 555 -3136
2020-02-16 14:01:54 GMT 50.863815 -2.007529 22,225 65 555 -3328
2020-02-16 14:01:51 GMT 50.860107 -2.020519 22,500 65 557 -3648
2020-02-16 14:01:48 GMT 50.857773 -2.028611 22,500 65 558 -3520
2020-02-16 14:01:45 GMT 50.854660 -2.039374 22,850 65 558 -3520
2020-02-16 14:01:42 GMT 50.850723 -2.053033 22,850 65 559 -3136
2020-02-16 14:01:39 GMT 50.844585 -2.074280 23,100 65 570 -1152
2020-02-16 14:01:36 GMT 50.842213 -2.082520 23,325 64 581 -1664
2020-02-16 14:01:30 GMT 50.837605 -2.098312 23,225 65 575 -1152
2020-02-16 14:01:27 GMT 50.835369 -2.105865 23,250 65 575 -1152
2020-02-16 14:01:24 GMT 50.832157 -2.116928 23,300 64 577 -1344
2020-02-16 14:01:21 GMT 50.828388 -2.129517 23,475 64 581 -1728
2020-02-16 14:01:18 GMT 50.825222 -2.140274 23,575 64 584 -1600
2020-02-16 14:01:15 GMT 50.821289 -2.153320 23,700 63 594 -1856
2020-02-16 14:01:12 GMT 50.818005 -2.164078 23,700 63 594 -1856
2020-02-16 14:01:09 GMT 50.813690 -2.177965 23,750 63 594 -1856
2020-02-16 14:01:05 GMT 50.804810 -2.206173 24,025 63 618 -1664
2020-02-16 14:01:02 GMT 50.804810 -2.206173 24,000 63 610 -2176
2020-02-16 14:00:59 GMT 50.800919 -2.218422 24,150 63 617 -1792
2020-02-16 14:00:56 GMT 50.794281 -2.239281 24,250 63 620 -1536
2020-02-16 14:00:53 GMT 50.794281 -2.239281 24,400 63 625 -1536
2020-02-16 14:00:50 GMT 50.790710 -2.250638 24,400 64 629 -1792
2020-02-16 14:00:47 GMT 50.786861 -2.262955 24,400 64 632 -2176
2020-02-16 14:00:44 GMT 50.782516 -2.277065 24,650 64 635 -3392
2020-02-16 14:00:41 GMT 50.778252 -2.291260 24,800 64 636 -4352
2020-02-16 14:00:38 GMT 50.774570 -2.303467 25,650 64 637 -4608
2020-02-16 14:00:35 GMT 50.767548 -2.326949 25,400 64 638 -4544
2020-02-16 14:00:29 GMT 50.763401 -2.340851 25,750 64 637 -4736
2020-02-16 14:00:26 GMT 50.760223 -2.351371 27,275 64 638 -4736
2020-02-16 14:00:22 GMT 50.754929 -2.368927 26,200 64 638 -4608
2020-02-16 14:00:18 GMT 50.745255 -2.400810 26,625 64 640 -3904
2020-02-16 14:00:15 GMT 50.741009 -2.414780 27,250 64 641 -3264
2020-02-16 14:00:09 GMT 50.737061 -2.427830 27,075 64 649 -2176
2020-02-16 14:00:05 GMT 50.732906 -2.441330 27,175 64 647 -2240
2020-02-16 14:00:02 GMT 50.728905 -2.454529 27,375 64 650 -2304
2020-02-16 13:59:59 GMT 50.724808 -2.468185 27,650 64 645 -4480
2020-02-16 13:59:56 GMT 50.718105 -2.490463 27,650 64 650 -3392
2020-02-16 13:59:50 GMT 50.710419 -2.516018 27,900 64 647 -4352
2020-02-16 13:59:47 GMT 50.710419 -2.516018 28,275 64 645 -4544
2020-02-16 13:59:44 GMT 50.706093 -2.530518 28,600 64 644 -4480
2020-02-16 13:59:41 GMT 50.702042 -2.544077 28,475 64 643 -4352
2020-02-16 13:59:38 GMT 50.698738 -2.555084 28,800 64 641 -3392
2020-02-16 13:59:35 GMT 50.694946 -2.567757 29,075 64 642 -2368
2020-02-16 13:59:32 GMT 50.691422 -2.579634 29,350 64 642 -2368
2020-02-16 13:59:29 GMT 50.686913 -2.594833 29,150 64 642 -2112
2020-02-16 13:59:26 GMT 50.683868 -2.605022 29,225 64 644 -1984
2020-02-16 13:59:23 GMT 50.678814 -2.621918 29,350 64 645 -2176
2020-02-16 13:59:20 GMT 50.675903 -2.631745 29,425 64 645 -2432
2020-02-16 13:59:17 GMT 50.671783 -2.645255 29,600 65 644 -3136
2020-02-16 13:59:14 GMT 50.666710 -2.662255 29,800 65 644 -3136
2020-02-16 13:59:11 GMT 50.663864 -2.672063 29,900 67 642 -3328
2020-02-16 13:59:08 GMT 50.661079 -2.682371 30,175 69 639 -3392
2020-02-16 13:59:05 GMT 50.658279 -2.693096 30,200 69 638 -3392
2020-02-16 13:59:02 GMT 50.654480 -2.709214 30,375 76 624 -3136
2020-02-16 13:58:58 GMT 50.651047 -2.725404 30,700 76 625 -3264
2020-02-16 13:58:55 GMT 50.648556 -2.738565 30,925 76 624 -3136
2020-02-16 13:58:52 GMT 50.646240 -2.751786 31,350 79 617 -3072
2020-02-16 13:58:49 GMT 50.644135 -2.764992 31,125 77 623 -3072
2020-02-16 13:58:46 GMT 50.642303 -2.778240 31,350 79 617 -3072
2020-02-16 13:58:43 GMT 50.640453 -2.793274 31,400 80 614 -3200
2020-02-16 13:58:40 GMT 50.638779 -2.810422 31,650 85 602 -1472
2020-02-16 13:58:37 GMT 50.637894 -2.822224 31,800 83 606 -2944
2020-02-16 13:58:34 GMT 50.637177 -2.832738 31,900 85 602 -1920
2020-02-16 13:58:31 GMT 50.636593 -2.842787 31,975 86 602 -1216
2020-02-16 13:58:28 GMT 50.635986 -2.856301 32,000 90 596 0
2020-02-16 13:58:25 GMT 50.635620 -2.869311 32,000 88 598 -128
2020-02-16 13:58:22 GMT 50.635429 -2.883243 32,000 91 592 0
2020-02-16 13:58:19 GMT 50.635521 -2.902618 32,025 106 555 0
2020-02-16 13:58:16 GMT 50.635666 -2.909498 32,000 94 587 0
2020-02-16 13:58:12 GMT 50.636444 -2.931254 32,000 94 587 0
2020-02-16 13:58:09 GMT 50.637039 -2.941878 32,000 97 579 0
2020-02-16 13:58:06 GMT 50.637863 -2.954021 32,000 97 579 0
2020-02-16 13:58:03 GMT 50.638779 -2.964898 32,000 98 576 0
2020-02-16 13:58:00 GMT 50.640152 -2.978957 32,000 100 572 -64
2020-02-16 13:57:57 GMT 50.641758 -2.993255 32,000 101 568 -64
2020-02-16 13:57:54 GMT 50.642761 -3.001364 32,000 101 568 -64
2020-02-16 13:57:51 GMT 50.646881 -3.030275 32,025 103 562 -64
2020-02-16 13:57:48 GMT 50.646881 -3.030275 32,025 103 562 -64
2020-02-16 13:57:45 GMT 50.648090 -3.037794 32,025 104 560 0
2020-02-16 13:57:42 GMT 50.652603 -3.064896 32,000 105 557 0
2020-02-16 13:57:39 GMT 50.652603 -3.064896 32,000 108 550 0
2020-02-16 13:57:36 GMT 50.656467 -3.084486 32,000 111 543 0
2020-02-16 13:57:33 GMT 50.656467 -3.084486 32,000 112 538 0
2020-02-16 13:57:30 GMT 50.659241 -3.096410 32,000 113 535 0
2020-02-16 13:57:27 GMT 50.661591 -3.105048 32,000 114 532 0
2020-02-16 13:57:24 GMT 50.665375 -3.117587 32,000 120 517 0
2020-02-16 13:57:21 GMT 50.667782 -3.124571 32,000 120 517 0
2020-02-16 13:57:18 GMT 50.672714 -3.137436 32,000 166 390 0
2020-02-16 13:57:15 GMT 50.675995 -3.144985 32,000 131 484 -64
2020-02-16 13:57:12 GMT 50.680252 -3.153967 32,000 132 481 -64
2020-02-16 13:57:09 GMT 50.689243 -3.170242 32,000 134 475 0
2020-02-16 13:57:06 GMT 50.689243 -3.170242 32,000 136 469 0
2020-02-16 13:57:03 GMT 50.693939 -3.177498 32,000 138 463 0
2020-02-16 13:57:00 GMT 50.698738 -3.184204 32,000 142 452 0
2020-02-16 13:56:57 GMT 50.703690 -3.190341 32,000 145 443 64
2020-02-16 13:56:54 GMT 50.710655 -3.198013 32,000 148 435 64
2020-02-16 13:56:51 GMT 50.715126 -3.202209 32,000 153 423 64
2020-02-16 13:56:48 GMT 50.719688 -3.206100 32,000 153 423 64
2020-02-16 13:56:45 GMT 50.724426 -3.209567 32,000 157 411 0
2020-02-16 13:56:42 GMT 50.731842 -3.214243 31,975 162 399 0
2020-02-16 13:56:39 GMT 50.735367 -3.216025 32,000 167 388 0
2020-02-16 13:56:36 GMT 50.740494 -3.218178 32,000 185 351 64
2020-02-16 13:56:33 GMT 50.745384 -3.219681 32,000 172 376 0
2020-02-16 13:56:30 GMT 50.751617 -3.220998 32,000 178 363 0
2020-02-16 13:56:27 GMT 50.756241 -3.221444 32,000 180 360 0
2020-02-16 13:56:23 GMT 50.762878 -3.221295 32,000 192 339 64
2020-02-16 13:56:20 GMT 50.768799 -3.220215 32,000 192 339 64
2020-02-16 13:56:17 GMT 50.771301 -3.219514 32,000 194 334 0
2020-02-16 13:56:12 GMT 50.784256 -3.213196 32,000 205 319 0
2020-02-16 13:56:09 GMT 50.784767 -3.212738 32,000 210 314 0
2020-02-16 13:56:06 GMT 50.787918 -3.210309 32,000 214 310 0
2020-02-16 13:56:03 GMT 50.792587 -3.205719 32,000 222 304 0
2020-02-16 13:56:00 GMT 50.795055 -3.203049 32,000 222 304 0
2020-02-16 13:55:57 GMT 50.798592 -3.198242 32,000 226 303 0
2020-02-16 13:55:54 GMT 50.801102 -3.194052 32,000 232 301 -64
2020-02-16 13:55:51 GMT 50.803436 -3.189969 32,000 244 302 0
2020-02-16 13:55:48 GMT 50.808701 -3.177053 32,000 249 305 64
2020-02-16 13:55:42 GMT 50.812134 -3.163394 31,975 262 316 64
2020-02-16 13:55:38 GMT 50.812134 -3.163394 32,000 260 312 64
2020-02-16 13:55:35 GMT 50.813187 -3.156194 32,000 262 316 64
2020-02-16 13:55:32 GMT 50.813862 -3.149872 32,000 282 344 0
2020-02-16 13:55:29 GMT 50.814194 -3.142906 31,975 270 325 64
2020-02-16 13:55:26 GMT 50.814148 -3.133182 32,000 277 336 0
2020-02-16 13:55:23 GMT 50.813908 -3.128357 32,000 278 338 0
2020-02-16 13:55:20 GMT 50.813324 -3.121008 32,000 281 342 -64
2020-02-16 13:55:17 GMT 50.812592 -3.113956 32,000 283 345 0
2020-02-16 13:55:14 GMT 50.811584 -3.106310 32,000 283 346 0
2020-02-16 13:55:11 GMT 50.810165 -3.096734 32,000 284 347 0
2020-02-16 13:55:08 GMT 50.809254 -3.090515 32,000 284 348 0
2020-02-16 13:55:05 GMT 50.808472 -3.085154 32,000 284 348 0
2020-02-16 13:55:01 GMT 50.807068 -3.075714 32,000 284 349 -64
2020-02-16 13:54:58 GMT 50.805485 -3.065109 32,000 284 349 -64
2020-02-16 13:54:55 GMT 50.804306 -3.057168 32,000 284 349 0
2020-02-16 13:54:52 GMT 50.803574 -3.051972 32,000 284 349 0
2020-02-16 13:54:49 GMT 50.802521 -3.044772 32,000 284 349 0
2020-02-16 13:54:46 GMT 50.801388 -3.037415 32,000 284 349 0
2020-02-16 13:54:43 GMT 50.800323 -3.029925 32,000 284 349 0
2020-02-16 13:54:40 GMT 50.799198 -3.022537 32,000 284 349 0
2020-02-16 13:54:37 GMT 50.797989 -3.014374 32,000 284 348 0
2020-02-16 13:54:34 GMT 50.795975 -3.001049 32,000 284 348 0
2020-02-16 13:54:31 GMT 50.795975 -3.001049 32,000 284 348 0
2020-02-16 13:54:28 GMT 50.794777 -2.993088 32,000 284 348 0
2020-02-16 13:54:25 GMT 50.793846 -2.986908 32,000 284 348 0
2020-02-16 13:54:22 GMT 50.792313 -2.977072 32,000 284 348 0
2020-02-16 13:54:19 GMT 50.791443 -2.971356 32,000 284 347 0
2020-02-16 13:54:16 GMT 50.789841 -2.961044 32,000 284 347 0
2020-02-16 13:54:13 GMT 50.788071 -2.949448 32,000 284 347 -64
2020-02-16 13:54:10 GMT 50.788071 -2.949448 32,000 284 347 -64
2020-02-16 13:54:07 GMT 50.786907 -2.941818 32,000 284 347 0
2020-02-16 13:54:04 GMT 50.785789 -2.934647 32,000 284 345 0
2020-02-16 13:54:00 GMT 50.783844 -2.921918 32,000 284 346 -64
2020-02-16 13:53:57 GMT 50.783066 -2.916722 32,000 284 346 0
2020-02-16 13:53:54 GMT 50.781975 -2.909393 32,000 284 346 0
2020-02-16 13:53:51 GMT 50.780437 -2.899323 32,000 284 346 0
2020-02-16 13:53:48 GMT 50.779724 -2.894378 32,000 284 346 0
2020-02-16 13:53:45 GMT 50.778713 -2.887802 32,000 284 345 0
2020-02-16 13:53:42 GMT 50.777412 -2.879410 32,000 284 345 0
2020-02-16 13:53:38 GMT 50.775970 -2.869873 32,000 284 345 0
2020-02-16 13:53:32 GMT 50.772537 -2.847834 32,000 331 457 64
2020-02-16 13:53:29 GMT 50.772537 -2.847834 32,000 284 345 0
2020-02-16 13:53:26 GMT 50.771484 -2.841005 32,000 284 345 0
2020-02-16 13:53:23 GMT 50.769928 -2.830761 32,000 284 344 0
2020-02-16 13:53:20 GMT 50.769314 -2.826614 32,000 287 344 0
2020-02-16 13:53:17 GMT 50.768005 -2.818067 32,000 284 344 0
2020-02-16 13:53:14 GMT 50.767170 -2.812424 32,000 284 342 0
2020-02-16 13:53:11 GMT 50.766083 -2.805151 32,000 284 342 0
2020-02-16 13:53:08 GMT 50.764618 -2.795204 32,000 283 341 0
2020-02-16 13:53:02 GMT 50.762470 -2.780380 32,000 283 340 0
2020-02-16 13:52:58 GMT 50.760422 -2.766418 32,000 283 339 -64
2020-02-16 13:52:52 GMT 50.759033 -2.756826 32,000 284 339 0
2020-02-16 13:52:49 GMT 50.758026 -2.749848 32,000 284 340 0
2020-02-16 13:52:46 GMT 50.757294 -2.745023 32,000 285 341 0
2020-02-16 13:52:43 GMT 50.755875 -2.736115 32,000 149 441 0
2020-02-16 13:52:40 GMT 50.754509 -2.728424 32,000 288 346 0
2020-02-16 13:52:36 GMT 50.751251 -2.712555 32,000 292 355 64
2020-02-16 13:52:33 GMT 50.751251 -2.712555 32,000 293 357 0
2020-02-16 13:52:30 GMT 50.748550 -2.702713 32,000 298 368 0
2020-02-16 13:52:27 GMT 50.746216 -2.695585 32,000 300 373 0
2020-02-16 13:52:24 GMT 50.744431 -2.690908 32,000 308 392 64
2020-02-16 13:52:21 GMT 50.741611 -2.684402 32,000 325 442 0
2020-02-16 13:52:18 GMT 50.738308 -2.677307 32,000 310 398 64
2020-02-16 13:52:15 GMT 50.731155 -2.665150 32,000 323 436 64
2020-02-16 13:52:09 GMT 50.726761 -2.658766 32,000 322 433 64
2020-02-16 13:52:06 GMT 50.717407 -2.647400 32,000 325 442 0
2020-02-16 13:52:03 GMT 50.710236 -2.640228 32,000 333 463 0
2020-02-16 13:52:00 GMT 50.710236 -2.640228 31,975 334 466 64
2020-02-16 13:51:57 GMT 50.706161 -2.636645 32,000 345 499 0
2020-02-16 13:51:54 GMT 50.700043 -2.631760 31,975 341 487 64
2020-02-16 13:51:51 GMT 50.691879 -2.626326 32,000 341 487 64
2020-02-16 13:51:48 GMT 50.685471 -2.622757 32,000 342 490 0
2020-02-16 13:51:44 GMT 50.672253 -2.617188 32,000 350 516 0
2020-02-16 13:51:41 GMT 50.672253 -2.617188 32,000 351 518 0
2020-02-16 13:51:38 GMT 50.665035 -2.614969 32,000 354 527 0
2020-02-16 13:51:35 GMT 50.650463 -2.612296 32,000 357 535 0
2020-02-16 13:51:32 GMT 50.650463 -2.612296 32,000 0 549 0
2020-02-16 13:51:29 GMT 50.642990 -2.611783 32,000 5 564 0
2020-02-16 13:51:26 GMT 50.635658 -2.611703 32,000 3 559 0
2020-02-16 13:51:23 GMT 50.625607 -2.612593 32,000 10 578 -64
2020-02-16 13:51:19 GMT 50.610477 -2.615488 32,000 9 576 0
2020-02-16 13:51:16 GMT 50.602615 -2.617854 32,000 13 585 -64
2020-02-16 13:51:13 GMT 50.594421 -2.620890 32,000 19 602 0
2020-02-16 13:51:10 GMT 50.594421 -2.620890 32,000 17 596 -64
2020-02-16 13:51:07 GMT 50.587059 -2.624174 32,000 21 606 0
2020-02-16 13:51:04 GMT 50.578869 -2.628405 32,000 21 606 0
2020-02-16 13:51:01 GMT 50.571808 -2.632454 32,000 25 615 0
2020-02-16 13:50:58 GMT 50.560410 -2.640260 32,000 27 618 0
2020-02-16 13:50:54 GMT 50.550430 -2.648066 32,000 33 631 0
2020-02-16 13:50:51 GMT 50.545628 -2.652233 32,000 34 632 0
2020-02-16 13:50:48 GMT 50.535233 -2.662161 32,000 41 641 0
2020-02-16 13:50:45 GMT 50.528687 -2.669100 32,000 38 637 0
2020-02-16 13:50:41 GMT 50.511738 -2.689943 32,000 40 641 0
2020-02-16 13:50:38 GMT 50.511738 -2.689943 32,000 42 643 0
2020-02-16 13:50:35 GMT 50.507538 -2.695770 32,000 43 643 0
2020-02-16 13:50:32 GMT 50.501266 -2.705094 32,000 46 645 0
2020-02-16 13:50:29 GMT 50.495590 -2.714057 32,000 59 647 0
2020-02-16 13:50:26 GMT 50.488174 -2.726922 32,000 53 648 0
2020-02-16 13:50:23 GMT 50.482727 -2.737475 32,000 53 648 0
2020-02-16 13:50:20 GMT 50.477661 -2.747992 32,000 56 648 0
2020-02-16 13:50:17 GMT 50.472198 -2.760315 32,000 57 647 0
2020-02-16 13:50:14 GMT 50.463604 -2.782213 32,000 60 647 0
2020-02-16 13:50:08 GMT 50.458389 -2.797505 32,000 65 644 0
2020-02-16 13:50:05 GMT 50.455307 -2.807585 32,000 69 641 0
2020-02-16 13:50:02 GMT 50.450661 -2.824748 32,000 69 640 0
2020-02-16 13:49:59 GMT 50.448578 -2.833388 32,000 114 545 64
2020-02-16 13:49:56 GMT 50.445053 -2.849579 32,000 76 634 0
2020-02-16 13:49:52 GMT 50.441677 -2.869065 32,000 80 628 0
2020-02-16 13:49:48 GMT 50.439163 -2.887845 32,000 84 620 -64
2020-02-16 13:49:45 GMT 50.437908 -2.898980 32,000 84 620 -64
2020-02-16 13:49:42 GMT 50.436604 -2.915534 32,000 84 620 -64
2020-02-16 13:49:39 GMT 50.436127 -2.925327 32,000 91 605 0
2020-02-16 13:49:35 GMT 50.435814 -2.953541 32,000 93 601 0
2020-02-16 13:49:32 GMT 50.435814 -2.953541 32,000 96 595 0
2020-02-16 13:49:29 GMT 50.437160 -2.982491 32,000 96 595 0
2020-02-16 13:49:26 GMT 50.437160 -2.982491 32,000 98 589 0
2020-02-16 13:49:23 GMT 50.438278 -2.995148 32,000 100 585 0
2020-02-16 13:49:20 GMT 50.439468 -3.005122 32,000 102 577 -64
2020-02-16 13:49:16 GMT 50.442123 -3.022975 32,025 106 567 0
2020-02-16 13:49:13 GMT 50.444412 -3.035190 32,025 109 559 -64
2020-02-16 13:49:10 GMT 50.446846 -3.046331 32,000 111 555 0
2020-02-16 13:49:06 GMT 50.450382 -3.060064 32,000 121 525 0
2020-02-16 13:49:03 GMT 50.453842 -3.071907 32,000 118 535 0
2020-02-16 13:49:00 GMT 50.457092 -3.081520 32,000 119 530 0
2020-02-16 13:48:57 GMT 50.462082 -3.094675 32,000 126 511 0
2020-02-16 13:48:54 GMT 50.465790 -3.103489 32,000 126 511 0
2020-02-16 13:48:51 GMT 50.468864 -3.110022 32,000 129 503 0
2020-02-16 13:48:47 GMT 50.475613 -3.123086 32,000 133 489 0
2020-02-16 13:48:44 GMT 50.479755 -3.130287 32,000 135 485 -64
2020-02-16 13:48:41 GMT 50.485718 -3.139269 32,000 137 479 64
2020-02-16 13:48:38 GMT 50.488174 -3.142813 32,000 143 460 0
2020-02-16 13:48:34 GMT 50.500751 -3.157901 32,000 148 444 0
2020-02-16 13:48:31 GMT 50.508453 -3.165364 32,000 163 402 0
2020-02-16 13:48:28 GMT 50.508453 -3.165364 32,000 154 425 0
2020-02-16 13:48:25 GMT 50.513088 -3.169185 32,000 159 414 0
2020-02-16 13:48:22 GMT 50.516487 -3.171708 32,000 167 391 0
2020-02-16 13:48:19 GMT 50.527039 -3.178229 32,000 165 397 0
2020-02-16 13:48:12 GMT 50.535782 -3.182132 32,000 167 391 0
2020-02-16 13:48:09 GMT 50.539295 -3.183437 32,000 170 385 0
2020-02-16 13:48:06 GMT 50.544617 -3.185096 32,000 169 386 0
2020-02-16 13:48:03 GMT 50.550934 -3.186926 32,000 170 384 0
2020-02-16 13:48:00 GMT 50.555309 -3.188039 32,000 170 384 0
2020-02-16 13:47:57 GMT 50.562481 -3.189969 32,000 170 384 0
2020-02-16 13:47:54 GMT 50.567554 -3.191306 32,000 170 384 0
2020-02-16 13:47:51 GMT 50.572128 -3.192468 32,000 170 384 0
2020-02-16 13:47:48 GMT 50.576305 -3.193607 32,000 170 384 0
2020-02-16 13:47:45 GMT 50.581238 -3.194925 32,000 169 380 0
2020-02-16 13:47:41 GMT 50.590530 -3.197383 32,000 170 384 0
2020-02-16 13:47:38 GMT 50.594368 -3.198432 32,000 279 342 0
2020-02-16 13:47:33 GMT 50.602936 -3.200780 32,000 170 384 0
2020-02-16 13:47:30 GMT 50.608704 -3.202298 32,000 170 384 0
2020-02-16 13:47:27 GMT 50.613785 -3.203671 32,000 170 383 0
2020-02-16 13:47:24 GMT 50.619186 -3.205189 32,000 170 380 0
2020-02-16 13:47:21 GMT 50.625641 -3.206924 32,000 170 383 0
2020-02-16 13:47:18 GMT 50.633846 -3.209196 32,000 170 383 0
2020-02-16 13:47:15 GMT 50.639618 -3.210754 32,000 170 383 0
2020-02-16 13:47:12 GMT 50.639618 -3.210754 32,000 170 383 0
2020-02-16 13:47:09 GMT 50.644505 -3.212091 32,000 170 383 0
2020-02-16 13:47:06 GMT 50.649532 -3.213427 32,000 170 383 0
2020-02-16 13:47:03 GMT 50.654800 -3.214874 32,000 170 382 0
2020-02-16 13:47:00 GMT 50.660522 -3.216464 32,000 170 382 0
2020-02-16 13:46:57 GMT 50.671692 -3.219514 32,000 170 382 0
2020-02-16 13:46:54 GMT 50.671692 -3.219514 32,000 169 382 0
2020-02-16 13:46:51 GMT 50.678467 -3.221370 32,000 169 382 0
2020-02-16 13:46:48 GMT 50.681580 -3.222260 32,000 169 382 0
2020-02-16 13:46:45 GMT 50.687164 -3.223819 32,000 169 381 0
2020-02-16 13:46:42 GMT 50.692017 -3.225155 32,000 169 381 0
2020-02-16 13:46:39 GMT 50.699158 -3.227158 32,000 170 380 0
2020-02-16 13:46:36 GMT 50.707809 -3.229609 32,000 170 381 0
2020-02-16 13:46:28 GMT 50.716827 -3.232133 32,000 170 381 0
2020-02-16 13:46:24 GMT 50.725506 -3.234482 32,000 170 380 0
2020-02-16 13:46:21 GMT 50.729836 -3.235703 32,000 170 380 0
2020-02-16 13:46:18 GMT 50.734726 -3.237033 32,000 169 381 64
2020-02-16 13:46:15 GMT 50.739395 -3.238369 32,000 170 380 0
2020-02-16 13:46:11 GMT 50.746124 -3.240224 32,000 169 380 0
2020-02-16 13:46:07 GMT 50.758621 -3.243788 32,000 169 380 0
2020-02-16 13:46:04 GMT 50.758621 -3.243788 32,000 169 380 0
2020-02-16 13:46:01 GMT 50.763611 -3.245198 32,000 169 380 0
2020-02-16 13:45:58 GMT 50.768147 -3.246460 32,000 169 380 0
2020-02-16 13:45:55 GMT 50.778488 -3.249355 32,000 169 381 64
2020-02-16 13:45:49 GMT 50.783695 -3.250809 32,000 169 380 64
2020-02-16 13:45:46 GMT 50.790253 -3.252695 32,000 169 380 64
2020-02-16 13:45:43 GMT 50.796524 -3.254477 32,000 169 380 64
2020-02-16 13:45:40 GMT 50.800129 -3.255463 32,000 169 381 64
2020-02-16 13:45:37 GMT 50.804459 -3.256683 32,000 169 381 0
2020-02-16 13:45:34 GMT 50.811081 -3.258486 32,000 168 382 -64
2020-02-16 13:45:31 GMT 50.815586 -3.259811 32,000 169 383 0
2020-02-16 13:45:28 GMT 50.827084 -3.263092 32,000 169 383 -64
2020-02-16 13:45:25 GMT 50.827084 -3.263092 32,000 169 384 0
2020-02-16 13:45:21 GMT 50.832481 -3.264694 32,000 169 384 0
2020-02-16 13:45:18 GMT 50.841934 -3.267517 32,000 168 384 0
2020-02-16 13:45:12 GMT 50.865921 -3.274965 32,000 168 384 -64
2020-02-16 13:45:06 GMT 50.865921 -3.274965 32,000 168 383 0
2020-02-16 13:45:02 GMT 50.867844 -3.275633 32,000 168 383 0
2020-02-16 13:44:59 GMT 50.870468 -3.276443 32,000 168 382 0
2020-02-16 13:44:56 GMT 50.876846 -3.278427 32,000 168 382 64
2020-02-16 13:44:53 GMT 50.882080 -3.280087 32,000 168 382 64
2020-02-16 13:44:49 GMT 50.887939 -3.281869 32,000 169 381 0
2020-02-16 13:44:46 GMT 50.894352 -3.283844 32,000 169 381 -64
2020-02-16 13:44:42 GMT 50.901428 -3.285980 32,000 169 381 0
2020-02-16 13:44:39 GMT 50.907349 -3.287807 32,000 169 381 0
2020-02-16 13:44:36 GMT 50.911469 -3.288995 32,000 169 381 0
2020-02-16 13:44:31 GMT 50.919434 -3.291445 32,000 169 381 -64
2020-02-16 13:44:28 GMT 50.924656 -3.292999 32,000 168 382 -64
2020-02-16 13:44:25 GMT 50.931564 -3.295082 32,000 168 382 -64
2020-02-16 13:44:19 GMT 50.946808 -3.299981 32,000 168 383 -64
2020-02-16 13:44:16 GMT 50.946808 -3.299981 32,000 168 384 0
2020-02-16 13:44:13 GMT 50.950306 -3.301086 32,000 168 384 0
2020-02-16 13:44:09 GMT 50.958252 -3.303693 32,000 168 384 0
2020-02-16 13:44:06 GMT 50.963154 -3.305283 32,000 168 384 0
2020-02-16 13:44:03 GMT 50.973038 -3.308592 32,000 168 385 0
2020-02-16 13:44:00 GMT 50.973038 -3.308592 32,000 168 385 0
2020-02-16 13:43:56 GMT 50.990524 -3.314234 32,000 168 388 64
2020-02-16 13:43:50 GMT 50.990524 -3.314234 32,000 168 388 64
2020-02-16 13:43:46 GMT 50.997528 -3.316535 32,000 168 389 64
2020-02-16 13:43:43 GMT 51.002819 -3.318329 31,975 168 389 0
2020-02-16 13:43:40 GMT 51.014282 -3.322102 31,975 168 389 0
2020-02-16 13:43:37 GMT 51.014282 -3.322102 32,000 168 389 0
2020-02-16 13:43:33 GMT 51.020782 -3.324181 32,000 169 387 64
2020-02-16 13:43:29 GMT 51.028381 -3.326408 32,000 169 387 64
2020-02-16 13:43:25 GMT 51.034332 -3.327866 32,000 173 378 64
2020-02-16 13:43:21 GMT 51.042202 -3.329468 32,000 179 365 0
2020-02-16 13:43:18 GMT 51.047012 -3.330045 32,000 215 313 0
2020-02-16 13:43:15 GMT 51.052917 -3.330194 32,000 185 354 0
2020-02-16 13:43:11 GMT 51.057564 -3.329849 32,000 187 351 0
2020-02-16 13:43:08 GMT 51.067711 -3.327255 32,000 196 335 0
2020-02-16 13:43:02 GMT 51.072369 -3.325195 32,000 201 329 0
2020-02-16 13:42:59 GMT 51.076836 -3.322678 32,000 207 322 0
2020-02-16 13:42:56 GMT 51.081161 -3.319430 32,000 213 315 0
2020-02-16 13:42:53 GMT 51.084984 -3.315887 32,000 218 312 0
2020-02-16 13:42:50 GMT 51.089638 -3.310776 32,000 221 310 0
2020-02-16 13:42:47 GMT 51.091049 -3.308889 32,000 227 307 0
2020-02-16 13:42:43 GMT 51.095352 -3.302282 32,000 229 306 64
2020-02-16 13:42:40 GMT 51.099365 -3.294678 32,000 239 306 0
2020-02-16 13:42:37 GMT 51.100998 -3.290787 32,000 251 310 0
2020-02-16 13:42:34 GMT 51.103184 -3.284683 32,000 248 309 0
2020-02-16 13:42:31 GMT 51.105194 -3.277712 32,000 254 312 -64
2020-02-16 13:42:27 GMT 51.106979 -3.269769 32,000 260 317 0
2020-02-16 13:42:24 GMT 51.107841 -3.264694 32,000 260 317 0
2020-02-16 13:42:21 GMT 51.109955 -3.247351 32,000 269 327 64
2020-02-16 13:42:17 GMT 51.109955 -3.247351 31,975 269 328 0
2020-02-16 13:42:13 GMT 51.110413 -3.240076 32,000 271 330 0
2020-02-16 13:42:10 GMT 51.110725 -3.229141 32,000 269 328 64
2020-02-16 13:42:07 GMT 51.110687 -3.224265 31,975 273 332 0
2020-02-16 13:42:04 GMT 51.110596 -3.219440 32,000 278 339 -64
2020-02-16 13:42:01 GMT 51.110275 -3.210903 32,000 276 337 -64
2020-02-16 13:41:58 GMT 51.109470 -3.199081 32,000 278 339 0
2020-02-16 13:41:55 GMT 51.109142 -3.195343 32,000 278 339 0
2020-02-16 13:41:52 GMT 51.108536 -3.187965 32,000 278 339 0
2020-02-16 13:41:49 GMT 51.107712 -3.177870 32,000 278 339 0
2020-02-16 13:41:46 GMT 51.107071 -3.170446 32,000 278 340 64
2020-02-16 13:41:43 GMT 51.106537 -3.164520 32,000 278 340 64
2020-02-16 13:41:40 GMT 51.106018 -3.158050 32,000 278 340 64
2020-02-16 13:41:37 GMT 51.105377 -3.150923 32,000 278 340 64
2020-02-16 13:41:34 GMT 51.104767 -3.143463 32,000 278 341 64
2020-02-16 13:41:31 GMT 51.104095 -3.135780 32,000 278 341 0
2020-02-16 13:41:28 GMT 51.103462 -3.128357 32,000 278 341 -64
2020-02-16 13:41:25 GMT 51.102814 -3.120934 32,000 278 342 0
2020-02-16 13:41:22 GMT 51.101990 -3.110764 32,000 278 341 -64
2020-02-16 13:41:19 GMT 51.101463 -3.104782 32,000 278 341 -64
2020-02-16 13:41:16 GMT 51.100754 -3.096363 32,000 278 342 -64
2020-02-16 13:41:13 GMT 51.100433 -3.092651 32,000 278 342 0
2020-02-16 13:41:10 GMT 51.099564 -3.082407 32,000 278 342 64
2020-02-16 13:41:07 GMT 51.099087 -3.076477 32,000 278 342 64
2020-02-16 13:41:04 GMT 51.098202 -3.066254 32,000 278 342 64
2020-02-16 13:41:01 GMT 51.097000 -3.052343 31,975 278 343 64
2020-02-16 13:40:58 GMT 51.097000 -3.052343 32,000 278 343 64
2020-02-16 13:40:54 GMT 51.096085 -3.041877 32,000 278 344 0
2020-02-16 13:40:50 GMT 51.094711 -3.026140 32,000 278 345 -64
2020-02-16 13:40:44 GMT 51.093922 -3.017120 32,000 278 345 -64
2020-02-16 13:40:38 GMT 51.092789 -3.004093 32,000 278 345 0
2020-02-16 13:40:35 GMT 51.092010 -2.995036 32,000 278 345 64
2020-02-16 13:40:32 GMT 51.091461 -2.988578 32,000 278 345 0
2020-02-16 13:40:29 GMT 51.090477 -2.977295 32,000 278 345 0
2020-02-16 13:40:26 GMT 51.089451 -2.965469 32,000 278 345 0
2020-02-16 13:40:20 GMT 51.088799 -2.957687 32,000 278 345 -64
2020-02-16 13:40:17 GMT 51.087448 -2.941895 32,000 278 344 0
2020-02-16 13:40:11 GMT 51.087021 -2.936913 32,000 278 344 0
2020-02-16 13:40:08 GMT 51.086243 -2.928153 32,000 278 344 0
2020-02-16 13:40:05 GMT 51.085495 -2.919159 32,000 278 344 0
2020-02-16 13:40:01 GMT 51.084824 -2.911674 32,000 278 344 0
2020-02-16 13:39:58 GMT 51.083958 -2.901688 32,000 278 344 0
2020-02-16 13:39:55 GMT 51.082470 -2.884445 32,000 278 343 0
2020-02-16 13:39:51 GMT 51.082470 -2.884445 32,000 278 343 0
2020-02-16 13:39:47 GMT 51.081863 -2.877197 32,000 278 343 0
2020-02-16 13:39:44 GMT 51.080429 -2.860528 32,000 278 343 0
2020-02-16 13:39:38 GMT 51.079769 -2.853012 32,000 278 342 0
2020-02-16 13:39:35 GMT 51.079010 -2.844568 32,000 278 342 0
2020-02-16 13:39:32 GMT 51.078232 -2.835617 32,000 278 342 0
2020-02-16 13:39:29 GMT 51.077766 -2.830429 32,000 279 342 0
2020-02-16 13:39:26 GMT 51.077023 -2.821732 32,000 279 342 0
2020-02-16 13:39:22 GMT 51.076263 -2.813317 32,000 279 342 64
2020-02-16 13:39:19 GMT 51.075027 -2.799138 32,000 279 342 64
2020-02-16 13:39:16 GMT 51.075027 -2.799138 32,000 278 342 0
2020-02-16 13:39:13 GMT 51.074341 -2.791418 32,000 278 342 64
2020-02-16 13:39:10 GMT 51.073669 -2.783966 32,000 278 342 0
2020-02-16 13:39:07 GMT 51.073067 -2.776794 32,000 278 343 -64
2020-02-16 13:39:03 GMT 51.072227 -2.767105 32,000 279 343 0
2020-02-16 13:39:00 GMT 51.071529 -2.759323 32,000 279 343 0
2020-02-16 13:38:57 GMT 51.070816 -2.751407 32,000 279 343 0
2020-02-16 13:38:54 GMT 51.069992 -2.741852 32,000 279 344 64
2020-02-16 13:38:51 GMT 51.069481 -2.736130 32,000 279 344 0
2020-02-16 13:38:48 GMT 51.068710 -2.727653 32,000 279 344 0
2020-02-16 13:38:45 GMT 51.068317 -2.723389 32,000 279 344 0
2020-02-16 13:38:42 GMT 51.067337 -2.712435 32,000 278 345 0
2020-02-16 13:38:39 GMT 51.067013 -2.708359 32,000 279 345 0
2020-02-16 13:38:36 GMT 51.065872 -2.695882 32,000 278 345 -64
2020-02-16 13:38:30 GMT 51.064819 -2.683856 32,000 278 345 -64
2020-02-16 13:38:27 GMT 51.064178 -2.676581 32,000 278 345 0
2020-02-16 13:38:24 GMT 51.063629 -2.670569 32,000 278 345 0
2020-02-16 13:38:21 GMT 51.062126 -2.653275 32,000 278 345 0
2020-02-16 13:38:18 GMT 51.062126 -2.653275 32,000 278 345 0
2020-02-16 13:38:15 GMT 51.061523 -2.646740 32,000 278 345 64
2020-02-16 13:38:12 GMT 51.060608 -2.636496 32,000 279 345 0
2020-02-16 13:38:09 GMT 51.059937 -2.628937 32,000 278 345 64
2020-02-16 13:38:06 GMT 51.059238 -2.621231 32,000 278 345 0
2020-02-16 13:38:03 GMT 51.058685 -2.614672 32,000 278 345 0
2020-02-16 13:38:00 GMT 51.057888 -2.605667 32,000 279 346 0
2020-02-16 13:37:57 GMT 51.057423 -2.600403 32,000 278 345 0
2020-02-16 13:37:54 GMT 51.055893 -2.583346 32,000 279 345 0
2020-02-16 13:37:51 GMT 51.055893 -2.583346 32,000 279 345 0
2020-02-16 13:37:48 GMT 51.054676 -2.570038 32,000 278 345 0
2020-02-16 13:37:45 GMT 51.054676 -2.570038 32,000 278 345 0
2020-02-16 13:37:42 GMT 51.054153 -2.564046 32,000 278 345 0
2020-02-16 13:37:39 GMT 51.053467 -2.556076 32,000 278 345 0
2020-02-16 13:37:36 GMT 51.052769 -2.548294 32,000 278 345 0
2020-02-16 13:37:33 GMT 51.051327 -2.532196 32,000 279 345 0
2020-02-16 13:37:30 GMT 51.051327 -2.532196 32,000 279 345 0
2020-02-16 13:37:26 GMT 51.050583 -2.523738 32,000 279 346 -64
2020-02-16 13:37:23 GMT 51.049622 -2.512900 32,000 279 346 0
2020-02-16 13:37:20 GMT 51.049183 -2.508163 32,000 279 346 0
2020-02-16 13:37:17 GMT 51.048439 -2.499847 32,000 279 346 0
2020-02-16 13:37:14 GMT 51.047974 -2.494583 32,000 279 346 0
2020-02-16 13:37:11 GMT 51.047058 -2.484543 32,000 279 347 0
2020-02-16 13:37:08 GMT 51.046509 -2.478530 32,000 279 347 0
2020-02-16 13:37:05 GMT 51.045959 -2.472221 32,000 279 347 64
2020-02-16 13:37:02 GMT 51.044064 -2.451324 32,000 279 348 192
2020-02-16 13:36:58 GMT 51.044064 -2.451324 30,500 279 351 704
2020-02-16 13:36:54 GMT 51.042664 -2.435847 31,950 279 349 320
2020-02-16 13:36:48 GMT 51.041924 -2.427750 31,925 279 349 640
2020-02-16 13:36:45 GMT 51.041084 -2.418365 31,900 279 349 768
2020-02-16 13:36:42 GMT 51.040421 -2.410757 31,675 279 348 1088
2020-02-16 13:36:39 GMT 51.039734 -2.403482 31,800 279 348 1216
2020-02-16 13:36:36 GMT 51.038498 -2.390046 31,550 279 348 1600
2020-02-16 13:36:30 GMT 51.037857 -2.382697 31,625 279 349 1728
2020-02-16 13:36:27 GMT 51.037128 -2.375107 31,475 279 349 1856
2020-02-16 13:36:24 GMT 51.035706 -2.359908 31,350 279 351 1856
2020-02-16 13:36:21 GMT 51.034847 -2.350693 31,075 279 351 1856
2020-02-16 13:36:18 GMT 51.034847 -2.350693 31,175 279 351 1856
2020-02-16 13:36:15 GMT 51.034241 -2.344360 30,325 279 353 1728
2020-02-16 13:36:12 GMT 51.033497 -2.336426 31,025 279 352 1856
2020-02-16 13:36:09 GMT 51.032593 -2.326726 30,625 279 353 1728
2020-02-16 13:36:06 GMT 51.030888 -2.308502 30,800 279 353 1664
2020-02-16 13:36:02 GMT 51.030888 -2.308502 30,700 279 354 1472
2020-02-16 13:35:59 GMT 51.030350 -2.302823 30,550 279 354 1536
2020-02-16 13:35:56 GMT 51.029819 -2.296982 30,425 279 353 1024
2020-02-16 13:35:53 GMT 51.029022 -2.288719 30,450 279 353 1344
2020-02-16 13:35:50 GMT 51.028236 -2.280045 30,375 279 353 1088
2020-02-16 13:35:47 GMT 51.027512 -2.272537 30,275 279 352 960
2020-02-16 13:35:44 GMT 51.026562 -2.262344 30,325 279 352 832
2020-02-16 13:35:41 GMT 51.025814 -2.254181 30,275 279 351 768
2020-02-16 13:35:38 GMT 51.024418 -2.239151 30,250 279 350 640
2020-02-16 13:35:35 GMT 51.023804 -2.232600 30,150 279 348 576
2020-02-16 13:35:32 GMT 51.023804 -2.232600 30,150 279 346 576
2020-02-16 13:35:28 GMT 51.023026 -2.224286 30,175 279 346 576
2020-02-16 13:35:25 GMT 51.022339 -2.216937 30,150 279 344 576
2020-02-16 13:35:22 GMT 51.021652 -2.209959 30,100 279 343 576
2020-02-16 13:35:19 GMT 51.020695 -2.199478 30,075 279 342 576
2020-02-16 13:35:16 GMT 51.019253 -2.184601 30,025 279 341 640
2020-02-16 13:35:13 GMT 51.019253 -2.184601 30,000 279 340 640
2020-02-16 13:35:10 GMT 51.018600 -2.177429 29,975 279 339 640
2020-02-16 13:35:07 GMT 51.018127 -2.172546 29,950 279 338 576
2020-02-16 13:35:04 GMT 51.017155 -2.162247 29,825 279 336 512
2020-02-16 13:35:01 GMT 51.016708 -2.157329 29,900 279 336 512
2020-02-16 13:34:58 GMT 51.015900 -2.148590 29,875 279 334 512
2020-02-16 13:34:55 GMT 51.015343 -2.142792 29,850 279 333 512
2020-02-16 13:34:52 GMT 51.014832 -2.136989 29,825 279 332 512
2020-02-16 13:34:49 GMT 51.013988 -2.128296 29,800 279 330 448
2020-02-16 13:34:46 GMT 51.013340 -2.121353 29,725 279 327 512
2020-02-16 13:34:43 GMT 51.012688 -2.113953 29,750 279 327 512
2020-02-16 13:34:40 GMT 51.011993 -2.106777 29,725 279 327 512
2020-02-16 13:34:37 GMT 51.011353 -2.099725 29,675 279 326 448
2020-02-16 13:34:34 GMT 51.010685 -2.092590 29,650 279 322 384
2020-02-16 13:34:31 GMT 51.009796 -2.083023 29,650 279 322 384
2020-02-16 13:34:28 GMT 51.009102 -2.075500 29,175 279 314 1344
2020-02-16 13:34:25 GMT 51.008682 -2.070847 29,600 279 316 1216
2020-02-16 13:34:22 GMT 51.007187 -2.054963 29,575 279 318 512
2020-02-16 13:34:19 GMT 51.007187 -2.054963 29,575 279 316 1024
2020-02-16 13:34:16 GMT 51.006775 -2.050781 29,550 279 316 1024
2020-02-16 13:34:13 GMT 51.005905 -2.041675 29,475 279 315 1216
2020-02-16 13:34:10 GMT 51.005402 -2.035960 29,425 279 315 1216
2020-02-16 13:34:07 GMT 51.004761 -2.029501 29,375 279 315 1280
2020-02-16 13:34:04 GMT 51.004211 -2.023340 29,200 279 314 1344
2020-02-16 13:34:01 GMT 51.003422 -2.015152 29,225 279 314 1344
2020-02-16 13:33:58 GMT 51.001831 -1.998547 29,025 279 314 1408
2020-02-16 13:33:54 GMT 51.001831 -1.998547 29,075 279 314 1408
2020-02-16 13:33:51 GMT 51.001328 -1.993350 29,000 279 313 1408
2020-02-16 13:33:48 GMT 51.000549 -1.985185 28,800 279 313 1280
2020-02-16 13:33:42 GMT 50.998627 -1.964798 28,750 279 312 1280
2020-02-16 13:33:39 GMT 50.998627 -1.964798 28,700 279 312 1280
2020-02-16 13:33:33 GMT 50.997513 -1.952972 28,575 279 310 1088
2020-02-16 13:33:30 GMT 50.996796 -1.945545 28,575 279 311 1088
2020-02-16 13:33:27 GMT 50.996063 -1.937677 28,500 279 310 1216
2020-02-16 13:33:24 GMT 50.995510 -1.931839 28,450 279 309 1280
2020-02-16 13:33:21 GMT 50.994904 -1.925354 28,400 279 309 1344
2020-02-16 13:33:18 GMT 50.994324 -1.919564 28,300 279 309 1536
2020-02-16 13:33:15 GMT 50.993408 -1.909914 28,200 279 309 1600
2020-02-16 13:33:12 GMT 50.993042 -1.905905 28,150 279 309 1600
2020-02-16 13:33:09 GMT 50.992310 -1.898259 28,050 279 308 1408
2020-02-16 13:33:06 GMT 50.991550 -1.890488 27,975 279 308 1024
2020-02-16 13:33:03 GMT 50.990715 -1.881561 27,650 280 297 1984
2020-02-16 13:33:00 GMT 50.990295 -1.877326 27,900 279 306 1024
2020-02-16 13:32:57 GMT 50.989883 -1.872649 27,900 279 307 960
2020-02-16 13:32:54 GMT 50.989037 -1.863785 27,750 279 306 1216
2020-02-16 13:32:51 GMT 50.988571 -1.859131 27,700 279 305 1344
2020-02-16 13:32:48 GMT 50.987408 -1.847000 27,425 279 304 1728
2020-02-16 13:32:42 GMT 50.986633 -1.839022 27,550 279 304 1664
2020-02-16 13:32:39 GMT 50.985966 -1.831970 27,400 279 304 1728
2020-02-16 13:32:36 GMT 50.985260 -1.824547 27,275 279 304 1728
2020-02-16 13:32:33 GMT 50.984619 -1.818163 27,250 279 303 1664
2020-02-16 13:32:30 GMT 50.984104 -1.812439 27,200 279 303 1600
2020-02-16 13:32:27 GMT 50.983337 -1.804504 27,100 279 303 1472
2020-02-16 13:32:24 GMT 50.982895 -1.799927 26,950 279 301 1536
2020-02-16 13:32:21 GMT 50.982197 -1.792450 27,000 279 302 1408
2020-02-16 13:32:18 GMT 50.980984 -1.780014 26,800 279 301 1664
2020-02-16 13:32:12 GMT 50.980179 -1.772139 26,725 279 301 1984
2020-02-16 13:32:09 GMT 50.979721 -1.767611 26,675 279 301 1984
2020-02-16 13:32:06 GMT 50.979031 -1.760178 26,375 279 301 1984
2020-02-16 13:32:03 GMT 50.978237 -1.752090 26,400 279 301 1920
2020-02-16 13:32:00 GMT 50.977798 -1.747272 26,200 279 301 1792
2020-02-16 13:31:57 GMT 50.977112 -1.740516 26,125 279 301 1728
2020-02-16 13:31:54 GMT 50.976425 -1.733316 25,250 279 301 1728
2020-02-16 13:31:51 GMT 50.975910 -1.727905 26,100 279 301 1728
2020-02-16 13:31:48 GMT 50.975235 -1.720697 25,900 279 300 1728
2020-02-16 13:31:45 GMT 50.973907 -1.707038 25,850 279 300 1728
2020-02-16 13:31:42 GMT 50.973907 -1.707038 25,625 279 298 1664
2020-02-16 13:31:38 GMT 50.973118 -1.698532 25,700 279 299 1664
2020-02-16 13:31:35 GMT 50.972511 -1.691666 25,675 279 299 1664
2020-02-16 13:31:32 GMT 50.971813 -1.684113 25,550 279 298 1664
2020-02-16 13:31:29 GMT 50.971481 -1.680611 25,500 279 298 1664
2020-02-16 13:31:26 GMT 50.970928 -1.674576 25,325 280 297 1856
2020-02-16 13:31:23 GMT 50.970139 -1.666641 25,250 280 297 1920
2020-02-16 13:31:20 GMT 50.969467 -1.660197 25,100 279 297 2112
2020-02-16 13:31:17 GMT 50.968872 -1.654185 25,050 279 297 2304
2020-02-16 13:31:14 GMT 50.968231 -1.647281 24,775 275 296 2880
2020-02-16 13:31:11 GMT 50.967670 -1.641083 24,725 276 296 2944
2020-02-16 13:31:08 GMT 50.967251 -1.634827 24,650 276 296 2880
2020-02-16 13:31:05 GMT 50.966949 -1.629169 24,325 272 295 2176
2020-02-16 13:31:02 GMT 50.966537 -1.619890 24,400 270 293 1920
2020-02-16 13:30:59 GMT 50.966446 -1.615584 24,325 272 295 2176
2020-02-16 13:30:56 GMT 50.966320 -1.607361 24,200 270 293 1920
2020-02-16 13:30:53 GMT 50.966446 -1.593834 24,000 268 291 1856
2020-02-16 13:30:49 GMT 50.966446 -1.593834 23,950 268 291 1856
2020-02-16 13:30:46 GMT 50.966583 -1.588489 23,900 267 290 1920
2020-02-16 13:30:43 GMT 50.966904 -1.579804 23,750 266 288 2048
2020-02-16 13:30:40 GMT 50.967178 -1.574088 23,650 265 288 2112
2020-02-16 13:30:37 GMT 50.967529 -1.568680 23,550 264 288 2176
2020-02-16 13:30:34 GMT 50.967999 -1.562195 23,225 256 281 2240
2020-02-16 13:30:31 GMT 50.968552 -1.555902 23,300 261 285 1984
2020-02-16 13:30:28 GMT 50.969147 -1.550112 23,100 259 283 1728
2020-02-16 13:30:25 GMT 50.970016 -1.542317 23,150 259 284 1728
2020-02-16 13:30:22 GMT 50.970657 -1.537418 23,050 258 282 1792
2020-02-16 13:30:19 GMT 50.971710 -1.529549 22,750 257 281 2112
2020-02-16 13:30:16 GMT 50.972324 -1.525497 22,825 257 281 2240
2020-02-16 13:30:13 GMT 50.973358 -1.518711 22,700 256 281 2240
2020-02-16 13:30:10 GMT 50.974236 -1.513290 22,600 256 281 2240
2020-02-16 13:30:07 GMT 50.975189 -1.507280 22,525 256 281 2304
2020-02-16 13:30:04 GMT 50.976189 -1.500931 22,450 256 281 2368
2020-02-16 13:30:01 GMT 50.977539 -1.492767 22,325 256 281 2432
2020-02-16 13:29:58 GMT 50.979168 -1.482773 22,050 256 282 2432
2020-02-16 13:29:52 GMT 50.980270 -1.475731 21,900 257 283 2368
2020-02-16 13:29:49 GMT 50.981079 -1.470490 21,775 257 283 2176
2020-02-16 13:29:43 GMT 50.982834 -1.459029 21,525 255 281 2240
2020-02-16 13:29:40 GMT 50.983932 -1.452497 21,525 255 281 2240
2020-02-16 13:29:37 GMT 50.984848 -1.447525 21,400 254 280 2432
2020-02-16 13:29:34 GMT 50.986153 -1.440659 21,275 253 279 2560
2020-02-16 13:29:31 GMT 50.987316 -1.434937 21,075 249 279 2368
2020-02-16 13:29:28 GMT 50.990017 -1.423035 20,925 249 279 2368
2020-02-16 13:29:25 GMT 50.990017 -1.423035 20,775 248 279 2304
2020-02-16 13:29:19 GMT 50.993134 -1.411075 20,600 246 278 2176
2020-02-16 13:29:16 GMT 50.994644 -1.405656 20,500 245 277 2112
2020-02-16 13:29:13 GMT 50.995743 -1.401945 20,250 244 276 2048
2020-02-16 13:29:10 GMT 50.997978 -1.394653 20,300 243 275 1984
2020-02-16 13:29:07 GMT 51.000027 -1.388397 20,250 242 275 1984
2020-02-16 13:29:04 GMT 51.001511 -1.384129 20,075 237 271 1664
2020-02-16 13:29:01 GMT 51.003021 -1.379749 19,950 240 274 1984
2020-02-16 13:28:58 GMT 51.007095 -1.368837 19,825 238 272 1792
2020-02-16 13:28:55 GMT 51.007095 -1.368837 19,775 237 271 1664
2020-02-16 13:28:51 GMT 51.009476 -1.362973 18,800 237 271 1664
2020-02-16 13:28:48 GMT 51.011662 -1.357651 19,475 235 268 1792
2020-02-16 13:28:45 GMT 51.014099 -1.352135 19,550 235 268 1792
2020-02-16 13:28:42 GMT 51.015884 -1.348126 19,450 234 267 1856
2020-02-16 13:28:39 GMT 51.018036 -1.343376 18,925 234 259 1984
2020-02-16 13:28:36 GMT 51.020966 -1.337066 19,325 234 266 1984
2020-02-16 13:28:33 GMT 51.024673 -1.329123 19,025 234 264 1920
2020-02-16 13:28:27 GMT 51.027119 -1.323776 18,775 235 262 1856
2020-02-16 13:28:24 GMT 51.031723 -1.313683 18,675 235 262 1856
2020-02-16 13:28:21 GMT 51.031723 -1.313683 18,750 235 260 1920
2020-02-16 13:28:18 GMT 51.033142 -1.310565 18,675 235 260 1920
2020-02-16 13:28:15 GMT 51.035778 -1.304855 18,575 234 258 1984
2020-02-16 13:28:12 GMT 51.037949 -1.300098 18,425 235 248 1536
2020-02-16 13:28:09 GMT 51.039963 -1.295644 18,425 234 258 1984
2020-02-16 13:28:06 GMT 51.041336 -1.292749 18,075 234 255 1984
2020-02-16 13:28:03 GMT 51.043831 -1.287231 18,100 234 256 2048
2020-02-16 13:28:00 GMT 51.045925 -1.282730 18,150 234 256 2048
2020-02-16 13:27:57 GMT 51.047745 -1.278794 17,950 234 254 1792
2020-02-16 13:27:54 GMT 51.050629 -1.272430 17,875 234 252 1664
2020-02-16 13:27:51 GMT 51.052277 -1.268847 17,775 234 251 1536
2020-02-16 13:27:48 GMT 51.055840 -1.261139 17,700 235 245 1536
2020-02-16 13:27:42 GMT 51.058636 -1.255112 17,575 234 246 1536
2020-02-16 13:27:39 GMT 51.060032 -1.251984 17,450 234 244 1536
2020-02-16 13:27:36 GMT 51.062073 -1.247468 17,450 235 242 1728
2020-02-16 13:27:32 GMT 51.065231 -1.240564 17,300 235 241 1984
2020-02-16 13:27:29 GMT 51.066734 -1.237259 17,175 235 240 2112
2020-02-16 13:27:26 GMT 51.068737 -1.232834 17,100 235 240 2368
2020-02-16 13:27:23 GMT 51.071251 -1.227188 16,950 235 240 2816
2020-02-16 13:27:20 GMT 51.072556 -1.224382 16,900 235 240 3072
2020-02-16 13:27:17 GMT 51.074661 -1.219631 16,700 235 241 3392
2020-02-16 13:27:14 GMT 51.076218 -1.216216 15,775 234 254 1984
2020-02-16 13:27:11 GMT 51.078510 -1.211166 16,325 235 243 3904
2020-02-16 13:27:08 GMT 51.080475 -1.207011 16,200 234 244 4160
2020-02-16 13:27:05 GMT 51.085968 -1.195134 15,750 234 251 4736
2020-02-16 13:27:01 GMT 51.085968 -1.195134 15,450 235 258 3520
2020-02-16 13:26:58 GMT 51.089081 -1.188379 15,100 235 257 4032
2020-02-16 13:26:52 GMT 51.091003 -1.184222 14,100 235 259 2688
2020-02-16 13:26:49 GMT 51.093567 -1.178506 14,750 235 259 2304
2020-02-16 13:26:46 GMT 51.095272 -1.174850 14,700 234 258 1344
2020-02-16 13:26:43 GMT 51.098576 -1.167603 14,625 234 258 1344
2020-02-16 13:26:40 GMT 51.100903 -1.162643 14,500 234 256 2240
2020-02-16 13:26:37 GMT 51.101944 -1.160320 14,475 234 256 2304
2020-02-16 13:26:34 GMT 51.104233 -1.155346 14,350 234 254 2304
2020-02-16 13:26:31 GMT 51.106293 -1.150966 14,000 234 253 1792
2020-02-16 13:26:28 GMT 51.108261 -1.146587 14,175 234 253 1728
2020-02-16 13:26:25 GMT 51.113659 -1.134720 14,050 235 250 832
2020-02-16 13:26:21 GMT 51.113659 -1.134720 14,000 235 250 512
2020-02-16 13:26:18 GMT 51.115753 -1.130142 14,000 235 248 192
2020-02-16 13:26:15 GMT 51.117195 -1.127014 14,000 235 247 0
2020-02-16 13:26:12 GMT 51.119843 -1.121125 14,000 234 246 64
2020-02-16 13:26:09 GMT 51.121719 -1.116968 14,000 234 246 64
2020-02-16 13:26:06 GMT 51.124969 -1.109842 14,000 235 245 64
2020-02-16 13:26:00 GMT 51.127029 -1.105314 14,000 235 245 0
2020-02-16 13:25:57 GMT 51.128952 -1.101082 14,000 235 245 0
2020-02-16 13:25:54 GMT 51.131561 -1.095367 14,000 235 245 0
2020-02-16 13:25:51 GMT 51.135406 -1.086904 14,000 234 244 0
2020-02-16 13:25:48 GMT 51.136658 -1.084137 14,000 235 244 0
2020-02-16 13:25:42 GMT 51.141544 -1.073380 14,000 235 244 64
2020-02-16 13:25:39 GMT 51.143509 -1.069014 14,000 235 244 64
2020-02-16 13:25:36 GMT 51.143509 -1.069014 14,000 235 244 64
2020-02-16 13:25:33 GMT 51.146988 -1.061294 14,000 235 244 0
2020-02-16 13:25:30 GMT 51.146988 -1.061294 14,000 235 245 0
2020-02-16 13:25:27 GMT 51.149223 -1.056290 14,000 235 245 64
2020-02-16 13:25:24 GMT 51.150970 -1.052535 14,000 235 245 0
2020-02-16 13:25:21 GMT 51.152573 -1.048897 14,000 235 245 64
2020-02-16 13:25:18 GMT 51.154907 -1.043775 14,000 235 245 0
2020-02-16 13:25:14 GMT 51.159760 -1.032938 14,025 235 245 -64
2020-02-16 13:25:11 GMT 51.159760 -1.032938 14,000 235 245 -64
2020-02-16 13:25:08 GMT 51.162094 -1.027816 14,000 235 245 -128
2020-02-16 13:25:05 GMT 51.163284 -1.025217 14,000 234 244 -192
2020-02-16 13:25:02 GMT 51.165611 -1.020050 14,000 234 244 -192
2020-02-16 13:24:59 GMT 51.167194 -1.016617 13,775 213 256 1856
2020-02-16 13:24:56 GMT 51.169464 -1.011633 14,025 234 244 -192
2020-02-16 13:24:53 GMT 51.172081 -1.005859 14,025 234 244 -64
2020-02-16 13:24:50 GMT 51.175434 -0.998611 14,025 234 244 320
2020-02-16 13:24:47 GMT 51.177387 -0.994263 14,000 233 247 320
2020-02-16 13:24:44 GMT 51.177387 -0.994263 14,000 232 247 384
2020-02-16 13:24:41 GMT 51.182045 -0.984802 13,950 231 249 512
2020-02-16 13:24:38 GMT 51.182045 -0.984802 13,925 229 250 768
2020-02-16 13:24:35 GMT 51.186234 -0.977325 13,875 226 253 896
2020-02-16 13:24:32 GMT 51.186234 -0.977325 13,825 225 254 960
2020-02-16 13:24:29 GMT 51.189724 -0.971985 13,800 222 255 1152
2020-02-16 13:24:26 GMT 51.192379 -0.968246 13,775 222 256 1216
2020-02-16 13:24:23 GMT 51.194473 -0.965424 13,650 217 256 1600
2020-02-16 13:24:20 GMT 51.196709 -0.962677 13,575 214 255 1792
2020-02-16 13:24:17 GMT 51.203133 -0.955582 10,600 193 259 1856
2020-02-16 13:24:14 GMT 51.203133 -0.955582 13,400 211 256 1984
2020-02-16 13:24:11 GMT 51.205551 -0.953293 13,350 209 256 2048
2020-02-16 13:24:08 GMT 51.209461 -0.949783 13,250 207 255 2240
2020-02-16 13:24:05 GMT 51.215328 -0.945358 13,000 204 255 2688
2020-02-16 13:24:02 GMT 51.218681 -0.943069 11,975 200 257 3072
2020-02-16 13:23:59 GMT 51.218681 -0.943069 12,725 201 256 3136
2020-02-16 13:23:56 GMT 51.225677 -0.938886 12,575 200 257 3072
2020-02-16 13:23:53 GMT 51.225677 -0.938886 12,425 199 257 3072
2020-02-16 13:23:50 GMT 51.228470 -0.937253 12,225 198 258 2816
2020-02-16 13:23:47 GMT 51.232552 -0.935135 12,250 197 258 2752
2020-02-16 13:23:44 GMT 51.235199 -0.933912 12,100 193 259 1984
2020-02-16 13:23:41 GMT 51.238464 -0.932693 12,000 193 259 1920
2020-02-16 13:23:38 GMT 51.242561 -0.931244 11,925 193 258 1536
2020-02-16 13:23:35 GMT 51.246380 -0.929947 11,825 193 257 1280
2020-02-16 13:23:32 GMT 51.252823 -0.927677 11,750 193 257 1344
2020-02-16 13:23:29 GMT 51.252823 -0.927677 11,550 193 259 1600
2020-02-16 13:23:23 GMT 51.263763 -0.923817 11,500 193 259 1664
2020-02-16 13:23:20 GMT 51.263763 -0.923817 11,450 193 259 1792
2020-02-16 13:23:17 GMT 51.267746 -0.922318 11,325 194 260 2176
2020-02-16 13:23:14 GMT 51.270355 -0.921367 11,225 194 260 2688
2020-02-16 13:23:11 GMT 51.277477 -0.918655 11,075 194 260 2688
2020-02-16 13:23:05 GMT 51.282120 -0.916765 10,825 195 263 2304
2020-02-16 13:23:02 GMT 51.283997 -0.916022 10,825 195 263 2240
2020-02-16 13:22:59 GMT 51.288044 -0.914383 10,600 195 271 1984
2020-02-16 13:22:56 GMT 51.291595 -0.912904 10,475 195 274 2176
2020-02-16 13:22:53 GMT 51.295074 -0.911420 10,450 195 273 2176
2020-02-16 13:22:50 GMT 51.298798 -0.909805 10,325 194 285 2688
2020-02-16 13:22:47 GMT 51.302490 -0.908228 10,250 195 278 2304
2020-02-16 13:22:44 GMT 51.306477 -0.906601 10,150 195 280 2432
2020-02-16 13:22:41 GMT 51.314438 -0.903329 9,850 194 285 2752
2020-02-16 13:22:38 GMT 51.314438 -0.903329 9,825 191 292 3840
2020-02-16 13:22:35 GMT 51.317791 -0.902023 9,625 193 288 3264
2020-02-16 13:22:32 GMT 51.321514 -0.900574 9,575 193 287 3200
2020-02-16 13:22:29 GMT 51.326309 -0.898895 9,300 192 288 3584
2020-02-16 13:22:26 GMT 51.328915 -0.897980 9,125 192 289 3840
2020-02-16 13:22:23 GMT 51.334412 -0.896225 9,050 191 291 3840
2020-02-16 13:22:20 GMT 51.336273 -0.895615 8,800 191 292 3712
2020-02-16 13:22:17 GMT 51.341309 -0.894124 8,650 191 292 3456
2020-02-16 13:22:14 GMT 51.344604 -0.893159 8,550 191 292 3136
2020-02-16 13:22:11 GMT 51.352341 -0.890932 8,325 191 292 2496
2020-02-16 13:22:05 GMT 51.357174 -0.889587 8,075 190 292 1216
2020-02-16 13:21:59 GMT 51.365799 -0.887220 8,025 190 291 640
2020-02-16 13:21:56 GMT 51.368858 -0.886383 8,000 190 290 256
2020-02-16 13:21:53 GMT 51.372803 -0.885290 8,000 190 290 64
2020-02-16 13:21:50 GMT 51.377426 -0.884028 8,000 190 290 64
2020-02-16 13:21:47 GMT 51.381149 -0.882950 8,000 190 290 64
2020-02-16 13:21:44 GMT 51.385757 -0.881729 8,000 190 290 0
2020-02-16 13:21:41 GMT 51.390015 -0.880614 8,000 190 290 0
2020-02-16 13:21:38 GMT 51.398094 -0.878448 8,000 190 290 -64
2020-02-16 13:21:35 GMT 51.398094 -0.878448 8,000 190 291 -64
2020-02-16 13:21:32 GMT 51.402191 -0.877380 8,000 190 291 -64
2020-02-16 13:21:29 GMT 51.404846 -0.876679 8,000 191 290 -64
2020-02-16 13:21:26 GMT 51.408428 -0.875626 8,025 193 288 -64
2020-02-16 13:21:23 GMT 51.412525 -0.874405 8,025 197 286 -64
2020-02-16 13:21:20 GMT 51.417599 -0.872498 8,025 195 287 -64
2020-02-16 13:21:17 GMT 51.420017 -0.871429 8,025 199 284 -128
2020-02-16 13:21:14 GMT 51.424164 -0.869293 8,025 205 280 -128
2020-02-16 13:21:11 GMT 51.428307 -0.866241 8,025 218 278 0
2020-02-16 13:21:08 GMT 51.430801 -0.864060 8,025 216 278 0
2020-02-16 13:21:05 GMT 51.435150 -0.859309 7,900 248 286 512
2020-02-16 13:21:02 GMT 51.438313 -0.855103 8,000 236 281 448
2020-02-16 13:20:59 GMT 51.439911 -0.852405 7,950 241 283 384
2020-02-16 13:20:56 GMT 51.442829 -0.847168 7,975 233 280 448
2020-02-16 13:20:53 GMT 51.446693 -0.837555 7,925 248 286 448
2020-02-16 13:20:47 GMT 51.448425 -0.831843 7,900 249 287 576
2020-02-16 13:20:43 GMT 51.450462 -0.823288 7,675 259 286 1792
2020-02-16 13:20:40 GMT 51.451721 -0.815512 7,775 259 286 1792
2020-02-16 13:20:37 GMT 51.452271 -0.811355 7,700 264 281 1344
2020-02-16 13:20:34 GMT 51.453396 -0.798035 7,600 267 277 1024
2020-02-16 13:20:31 GMT 51.453396 -0.798035 7,575 268 276 1024
2020-02-16 13:20:28 GMT 51.453629 -0.790863 7,525 269 272 960
2020-02-16 13:20:25 GMT 51.453781 -0.783964 7,300 269 257 1024
2020-02-16 13:20:22 GMT 51.453815 -0.781021 7,150 269 264 896
2020-02-16 13:20:19 GMT 51.453957 -0.773087 7,400 269 261 960
2020-02-16 13:20:16 GMT 51.454010 -0.766519 7,350 270 239 1216
2020-02-16 13:20:13 GMT 51.454094 -0.762939 7,250 269 249 1152
2020-02-16 13:20:10 GMT 51.454235 -0.750961 7,200 269 247 1152
2020-02-16 13:20:07 GMT 51.454235 -0.750961 7,125 269 243 1216
2020-02-16 13:20:03 GMT 51.454285 -0.742839 7,125 270 242 1216
2020-02-16 13:20:00 GMT 51.454376 -0.738534 6,900 273 226 448
2020-02-16 13:19:57 GMT 51.454422 -0.731735 6,975 270 230 1088
2020-02-16 13:19:53 GMT 51.454468 -0.725403 6,850 270 228 1280
2020-02-16 13:19:50 GMT 51.454514 -0.718842 6,800 270 226 1792
2020-02-16 13:19:47 GMT 51.454514 -0.711513 6,725 271 226 1792
2020-02-16 13:19:41 GMT 51.454468 -0.707282 6,600 272 226 1280
2020-02-16 13:19:38 GMT 51.454376 -0.701492 6,550 272 226 896
2020-02-16 13:19:35 GMT 51.454285 -0.697261 6,525 274 226 320
2020-02-16 13:19:32 GMT 51.454048 -0.689926 6,500 274 227 192
2020-02-16 13:19:29 GMT 51.453911 -0.686722 6,475 273 227 320
2020-02-16 13:19:26 GMT 51.453674 -0.681534 6,475 269 226 832
2020-02-16 13:19:23 GMT 51.453552 -0.677367 6,450 270 227 768
2020-02-16 13:19:20 GMT 51.453598 -0.670463 6,400 264 224 1152
2020-02-16 13:19:17 GMT 51.453781 -0.667345 6,375 255 221 1728
2020-02-16 13:19:14 GMT 51.454468 -0.660664 6,275 257 221 1280
2020-02-16 13:19:11 GMT 51.455292 -0.655394 6,150 255 222 1216
2020-02-16 13:19:08 GMT 51.455956 -0.651245 6,150 255 222 1344
2020-02-16 13:19:05 GMT 51.456749 -0.646667 6,100 255 221 1728
2020-02-16 13:19:02 GMT 51.457306 -0.643311 5,975 255 220 2048
2020-02-16 13:18:59 GMT 51.458313 -0.637652 5,875 255 218 2304
2020-02-16 13:18:56 GMT 51.458954 -0.633718 5,625 255 216 2496
2020-02-16 13:18:53 GMT 51.460007 -0.627705 5,650 255 215 2432
2020-02-16 13:18:48 GMT 51.461124 -0.621185 5,400 255 212 2368
2020-02-16 13:18:45 GMT 51.461868 -0.616760 5,375 255 212 2560
2020-02-16 13:18:42 GMT 51.462616 -0.612562 5,300 255 211 2880
2020-02-16 13:18:38 GMT 51.463898 -0.604990 5,000 255 212 2688
2020-02-16 13:18:35 GMT 51.465408 -0.596157 4,750 255 163 2304
2020-02-16 13:18:28 GMT 51.466599 -0.588808 4,550 256 207 1856
2020-02-16 13:18:25 GMT 51.467781 -0.581589 4,475 256 203 1344
2020-02-16 13:18:22 GMT 51.467781 -0.581589 4,425 256 201 1280
2020-02-16 13:18:19 GMT 51.468658 -0.576114 4,250 256 195 960
2020-02-16 13:18:16 GMT 51.469345 -0.571734 4,325 256 187 512
2020-02-16 13:18:13 GMT 51.469666 -0.569804 4,325 256 187 512
2020-02-16 13:18:10 GMT 51.470261 -0.565870 4,275 256 180 512
2020-02-16 13:18:07 GMT 51.471222 -0.560154 4,275 256 176 576
2020-02-16 13:18:04 GMT 51.471741 -0.556870 4,250 256 170 704
2020-02-16 13:18:00 GMT 51.472549 -0.551989 4,175 255 164 1728
2020-02-16 13:17:57 GMT 51.473236 -0.547832 4,100 255 163 2816
2020-02-16 13:17:54 GMT 51.473881 -0.544357 3,950 255 162 2688
2020-02-16 13:17:51 GMT 51.474243 -0.542116 3,875 257 165 3136
2020-02-16 13:17:48 GMT 51.475525 -0.534099 3,650 257 165 3136
2020-02-16 13:17:45 GMT 51.475525 -0.534099 3,450 258 167 3264
2020-02-16 13:17:42 GMT 51.476021 -0.530701 3,200 262 170 3200
2020-02-16 13:17:38 GMT 51.476536 -0.526199 3,175 266 171 2752
2020-02-16 13:17:35 GMT 51.476807 -0.523187 2,075 269 170 3776
2020-02-16 13:17:32 GMT 51.476990 -0.518213 2,925 269 171 2304
2020-02-16 13:17:28 GMT 51.477036 -0.513240 2,600 269 170 2752
2020-02-16 13:17:25 GMT 51.477093 -0.509491 2,375 269 170 2944
2020-02-16 13:17:22 GMT 51.477139 -0.506439 2,450 269 170 3008
2020-02-16 13:17:19 GMT 51.477219 -0.502402 2,250 269 170 3584
2020-02-16 13:17:16 GMT 51.477264 -0.498542 2,075 269 170 3776
2020-02-16 13:17:13 GMT 51.477310 -0.495424 1,975 269 171 3968
2020-02-16 13:17:10 GMT 51.477356 -0.491119 1,675 270 174 4096
2020-02-16 13:17:06 GMT 51.477448 -0.485403 1,275 270 179 3968
2020-02-16 13:17:02 GMT 51.477493 -0.480281 1,125 270 183 3904
2020-02-16 13:16:58 GMT 51.477558 -0.473480 725 270 4 1856
2020-02-16 13:16:55 GMT 51.477558 -0.471420 725 270 185 1856
2020-02-16 13:16:44 GMT 51.477650 -0.456390 650 270 132 64
2020-02-16 13:14:48 GMT 51.476063 -0.435537 0 70 8
2020-02-16 13:14:45 GMT 51.476017 -0.435667 0 75 7
2020-02-16 13:14:38 GMT 51.475948 -0.436001 0 87 5
2020-02-16 13:14:22 GMT 51.475952 -0.436382 0 87 2
2020-02-16 13:14:07 GMT 51.475941 -0.436535 0 87 2
2020-02-16 13:14:01 GMT 51.475941 -0.436630 0 90 2
2020-02-16 13:13:51 GMT 51.475937 -0.436744 0 90 0
2020-02-16 13:13:38 GMT 51.475941 -0.436878 0 90 2
2020-02-16 13:13:31 GMT 51.475941 -0.436974 0 90 2
2020-02-16 13:13:05 GMT 51.475937 -0.437189 0 90 0
2020-02-16 13:13:00 GMT 51.475929 -0.437202 0 90 0
2020-02-16 13:10:51 GMT 51.475925 -0.437727 0 90 2
2020-02-16 13:10:24 GMT 51.475925 -0.438210 0 90 5
2020-02-16 13:10:16 GMT 51.475929 -0.438538 0 90 6
2020-02-16 13:10:05 GMT 51.475918 -0.438919 0 90 4
2020-02-16 13:09:55 GMT 51.475914 -0.439193 0 90 5
2020-02-16 13:09:40 GMT 51.475918 -0.439625 0 90 3
2020-02-16 13:09:35 GMT 51.475918 -0.439701 0 90 3
2020-02-16 13:09:01 GMT 51.475906 -0.440979 0 92 10
2020-02-16 13:08:43 GMT 51.475964 -0.442104 0 92 7
2020-02-16 13:08:29 GMT 51.475986 -0.442753 0 92 6
2020-02-16 13:08:22 GMT 51.475994 -0.443035 0 90 5
2020-02-16 13:08:12 GMT 51.475998 -0.443363 0 90 4
2020-02-16 13:07:59 GMT 51.475998 -0.443707 0 90 4
2020-02-16 13:07:51 GMT 51.475998 -0.443897 0 90 3
2020-02-16 13:07:39 GMT 51.475998 -0.444126 0 90 2
2020-02-16 13:07:31 GMT 51.475998 -0.444241 0 90 2
2020-02-16 13:07:21 GMT 51.475998 -0.444355 0 90 1
2020-02-16 13:07:06 GMT 51.475994 -0.444482 0 90 3
2020-02-16 13:07:01 GMT 51.475994 -0.444557 0 90 3
2020-02-16 13:06:51 GMT 51.475998 -0.444775 0 90 3
2020-02-16 13:06:37 GMT 51.475994 -0.444983 0 90 3
2020-02-16 13:06:30 GMT 51.475998 -0.445175 0 90 7
2020-02-16 13:06:18 GMT 51.475994 -0.445856 0 90 8
2020-02-16 13:06:03 GMT 51.475994 -0.446579 0 90 5
2020-02-16 13:05:59 GMT 51.475983 -0.446728 0 90 5
2020-02-16 13:05:26 GMT 51.475986 -0.447979 0 90 7
2020-02-16 13:05:18 GMT 51.475986 -0.448341 0 90 6
2020-02-16 13:05:07 GMT 51.475986 -0.448895 0 90 9
2020-02-16 13:04:54 GMT 51.475983 -0.449864 0 90 15
2020-02-16 13:04:46 GMT 51.475975 -0.450706 0 90 16
2020-02-16 13:04:37 GMT 51.475983 -0.451776 0 90 18
2020-02-16 13:04:25 GMT 51.475971 -0.453409 0 90 19
2020-02-16 13:04:16 GMT 51.475971 -0.454652 0 90 20
2020-02-16 13:04:06 GMT 51.475964 -0.456104 0 90 19
2020-02-16 13:03:51 GMT 51.475952 -0.458164 0 90 19
2020-02-16 13:03:45 GMT 51.475948 -0.458958 0 90 18
2020-02-16 13:03:35 GMT 51.475952 -0.460320 0 90 16
2020-02-16 13:03:26 GMT 51.475937 -0.461389 0 90 16
2020-02-16 13:03:09 GMT 51.475929 -0.463142 0 90 13
2020-02-16 13:02:53 GMT 51.475925 -0.464581 0 90 11
2020-02-16 13:02:43 GMT 51.475925 -0.465286 0 90 10
2020-02-16 13:02:33 GMT 51.475914 -0.465972 0 90 10
2020-02-16 13:02:24 GMT 51.475918 -0.466595 0 90 9
2020-02-16 13:02:09 GMT 51.475914 -0.467606 0 90 10
2020-02-16 13:02:03 GMT 51.475906 -0.468044 0 87 10
2020-02-16 13:01:53 GMT 51.475880 -0.468756 0 61 10
2020-02-16 13:01:43 GMT 51.475662 -0.469350 0 5 8
2020-02-16 13:01:30 GMT 51.475231 -0.469379 0 326 6
2020-02-16 13:01:22 GMT 51.475056 -0.469276 0 298 5
2020-02-16 13:01:10 GMT 51.474930 -0.468960 0 272 4
2020-02-16 13:01:02 GMT 51.474926 -0.468693 0 272 4
2020-02-16 13:00:51 GMT 51.474930 -0.468385 0 284 3
2020-02-16 13:00:38 GMT 51.474926 -0.468178 0 295 2
2020-02-16 13:00:30 GMT 51.474926 -0.468063 0 306 4
2020-02-16 13:00:20 GMT 51.474838 -0.467754 0 334 7
2020-02-16 13:00:08 GMT 51.474476 -0.467510 0 348 7
2020-02-16 13:00:00 GMT 51.474255 -0.467439 0 348 3
2020-02-16 12:59:50 GMT 51.474197 -0.467420 0 348 0
2020-02-16 12:59:33 GMT 51.474113 -0.467377 0 348 6
2020-02-16 12:59:29 GMT 51.474037 -0.467346 0 351 7
2020-02-16 12:59:12 GMT 51.473465 -0.467272 0 0 8
2020-02-16 12:59:04 GMT 51.473148 -0.467262 0 357 9
2020-02-16 12:58:59 GMT 51.472950 -0.467262 0 348 10
2020-02-16 12:58:47 GMT 51.472473 -0.467072 0 289 9
2020-02-16 12:58:43 GMT 51.472401 -0.466862 0 272 9
2020-02-16 12:58:38 GMT 51.472378 -0.466576 0 270 11
2020-02-16 12:58:28 GMT 51.472401 -0.465794 0 267 10
2020-02-16 12:58:17 GMT 51.472412 -0.465063 0 275 7
2020-02-16 12:58:06 GMT 51.472424 -0.464535 0 298 6
2020-02-16 12:57:56 GMT 51.472309 -0.464154 0 323 8
2020-02-16 12:57:40 GMT 51.471775 -0.463543 0 326 11
2020-02-16 12:57:36 GMT 51.471622 -0.463371 0 326 10
2020-02-16 12:57:19 GMT 51.471142 -0.462873 0 326 4
2020-02-16 12:54:45 GMT 51.470924 -0.462613 0 323 0
2020-02-16 12:54:18 GMT 51.471062 -0.462688 0 334 2
2020-02-16 12:54:05 GMT 51.471153 -0.462669 0 345 2
2020-02-16 12:53:57 GMT 51.471203 -0.462646 0 354 2
2020-02-16 12:53:47 GMT 51.471294 -0.462608 0 0 3
2020-02-16 12:53:32 GMT 51.471413 -0.462532 0 11 2
2020-02-16 12:53:25 GMT 51.471447 -0.462437 0 22 2
2020-02-16 12:53:20 GMT 51.471481 -0.462379 0 28 2
2020-02-16 12:53:15 GMT 51.471497 -0.462317 0 36 2
2020-02-16 12:53:07 GMT 51.471531 -0.462205 0 45 3
2020-02-16 12:52:59 GMT 51.471577 -0.462074 0 50 3
2020-02-16 12:52:49 GMT 51.471622 -0.461945 0 56 3
2020-02-16 12:52:25 GMT 51.471714 -0.461686 0 56 0
2020-02-16 12:51:35 GMT 51.471714 -0.461693 0 56 0
2020-02-16 12:51:20 GMT 51.471714 -0.461712 0 56 0
2020-02-16 12:51:15 GMT 51.471714 -0.461693 0 56 0
2020-02-16 12:51:02 GMT 51.471714 -0.461674 0 56 0
2020-02-16 12:50:55 GMT 51.471725 -0.461686 0 56 0
2020-02-16 12:50:44 GMT 51.471809 -0.461597 0 56 0
2020-02-16 12:50:35 GMT 51.471806 -0.461593 0 56 0
2020-02-16 12:50:25 GMT 51.471714 -0.461674 0 56 0
2020-02-16 12:50:10 GMT 51.471806 -0.461593 0 56 0
2020-02-16 12:49:45 GMT 51.471809 -0.461597 0 56 0
2020-02-16 12:49:40 GMT 51.471806 -0.461593 0 56 0
2020-02-16 12:49:30 GMT 51.471798 -0.461597 0 56 0
2020-02-16 12:49:10 GMT 51.471806 -0.461593 0 56 0
2020-02-16 12:48:45 GMT 51.471798 -0.461597 0 56 0
2020-02-16 12:48:29 GMT 51.471794 -0.461593 0 56 0
2020-02-16 12:48:19 GMT 51.471798 -0.461597 0 56 0
2020-02-16 12:48:09 GMT 51.471794 -0.461593 0 56 0
2020-02-16 12:48:01 GMT 51.471798 -0.461597 0 56 0
2020-02-16 12:47:50 GMT 51.471794 -0.461593 0 56 0
2020-02-16 12:47:41 GMT 51.471714 -0.461693 0 56 0
2020-02-16 12:47:00 GMT 51.471809 -0.461597 0 56 0
2020-02-16 12:46:50 GMT 51.471806 -0.461593 0 56 0

Making use of Plane Finder data

You are free to use the raw flight data, aircraft information and images provided in this report for your own purposes provided the data is correctly attributed to Plane Finder. We ask that you please credit Plane Finder and link to planefinder.net in close proximity to the content.

Optionally one of the following logos (no smaller then 150x24px) can be used and must link to planefinder.net

Embedding the Plane Finder map

You are welcome to embed the Plane Finder playback map on your website to offer visitors a more interactive experience. We suggest using the following HTML code:

<iframe src="//planefinder.net/data/report/AA57-N729AN-7700-squawk-2020-02-16/map" width="800" height="600" seamless="seamless"></iframe>

Where our data comes from

Plane Finder has a global network of data feeds and antenna radars that receive data broadcast directly from aircraft. The primary technologies used are ADS-B and MLAT. We also show feeds from the FAA and a FLARM glider feed.

Click here to find out more about the Plane Finder network.

How we collect our data